Time,TemperatureF,DewpointF,PressureIn,WindDirection,WindDirectionDegrees,WindSpeedMPH,WindSpeedGustMPH,Humidity,HourlyPrecipIn,Conditions,Clouds,dailyrainin,SoftwareType,DateUTC
2013-01-07 00:00:00,29.7,25.4,29.48,WNW,286,7.0,14.0,84,0.00,,,0.00,WUHU216DAVISVP2,2013-01-07 05:00:00,
2013-01-07 00:01:00,29.8,25.5,29.48,WNW,287,5.0,14.0,84,0.00,,,0.00,WUHU216DAVISVP2,2013-01-07 05:01:00,
2013-01-07 00:05:00,29.7,25.4,29.48,West,277,7.0,14.0,84,0.00,,,0.00,WUHU216DAVISVP2,2013-01-07 05:05:00,
2013-01-07 00:06:00,29.7,25.4,29.48,WNW,290,5.0,14.0,84,0.00,,,0.00,WUHU216DAVISVP2,2013-01-07 05:06:00,
2013-01-07 00:10:00,29.7,25.4,29.48,WNW,288,6.0,11.0,84,0.00,,,0.00,WUHU216DAVISVP2,2013-01-07 05:10:00,
2013-01-07 00:11:00,29.7,25.4,29.48,WNW,298,5.0,11.0,84,0.00,,,0.00,WUHU216DAVISVP2,2013-01-07 05:11:00,
2013-01-07 00:15:00,29.6,25.3,29.48,WNW,287,5.0,10.0,84,0.00,,,0.00,WUHU216DAVISVP2,2013-01-07 05:15:00,
2013-01-07 00:16:00,29.6,25.3,29.48,WNW,287,4.0,9.0,84,0.00,,,0.00,WUHU216DAVISVP2,2013-01-07 05:16:00,
2013-01-07 00:17:00,29.7,25.4,29.47,WNW,287,2.0,9.0,84,0.00,,,0.00,WUHU216DAVISVP2,2013-01-07 05:17:00,
2013-01-07 00:20:00,29.6,25.3,29.48,WNW,293,7.0,9.0,84,0.00,,,0.00,WUHU216DAVISVP2,2013-01-07 05:20:00,
2013-01-07 00:21:00,29.6,25.6,29.48,WNW,289,6.0,9.0,85,0.00,,,0.00,WUHU216DAVISVP2,2013-01-07 05:21:00,
2013-01-07 00:22:00,29.6,25.6,29.48,WNW,295,7.0,9.0,85,0.00,,,0.00,WUHU216DAVISVP2,2013-01-07 05:22:00,
2013-01-07 00:25:00,29.6,25.3,29.48,WNW,290,6.0,9.0,84,0.00,,,0.00,WUHU216DAVISVP2,2013-01-07 05:25:00,
2013-01-07 00:26:00,29.6,25.3,29.48,WNW,289,4.0,9.0,84,0.00,,,0.00,WUHU216DAVISVP2,2013-01-07 05:26:00,
2013-01-07 00:27:00,29.6,25.3,29.48,West,280,7.0,9.0,84,0.00,,,0.00,WUHU216DAVISVP2,2013-01-07 05:27:00,
2013-01-07 00:30:00,29.5,25.2,29.48,WNW,284,7.0,9.0,84,0.00,,,0.00,WUHU216DAVISVP2,2013-01-07 05:30:00,
2013-01-07 00:32:00,29.5,25.2,29.48,WNW,290,6.0,9.0,84,0.00,,,0.00,WUHU216DAVISVP2,2013-01-07 05:32:00,
2013-01-07 00:35:00,29.5,25.2,29.48,WNW,290,7.0,9.0,84,0.00,,,0.00,WUHU216DAVISVP2,2013-01-07 05:35:00,
2013-01-07 00:37:00,29.5,25.2,29.48,West,278,6.0,9.0,84,0.00,,,0.00,WUHU216DAVISVP2,2013-01-07 05:37:00,
2013-01-07 00:41:00,29.4,25.1,29.48,WNW,283,6.0,10.0,84,0.00,,,0.00,WUHU216DAVISVP2,2013-01-07 05:41:00,
2013-01-07 00:42:00,29.4,25.1,29.48,WNW,283,7.0,10.0,84,0.00,,,0.00,WUHU216DAVISVP2,2013-01-07 05:42:00,
2013-01-07 00:46:00,29.3,25.0,29.48,West,264,3.0,10.0,84,0.00,,,0.00,WUHU216DAVISVP2,2013-01-07 05:46:00,
2013-01-07 00:47:00,29.3,25.3,29.48,West,262,7.0,10.0,85,0.00,,,0.00,WUHU216DAVISVP2,2013-01-07 05:47:00,
2013-01-07 00:51:00,29.3,25.3,29.48,West,262,9.0,10.0,85,0.00,,,0.00,WUHU216DAVISVP2,2013-01-07 05:51:00,
2013-01-07 00:52:00,29.3,25.3,29.48,WNW,296,6.0,10.0,85,0.00,,,0.00,WUHU216DAVISVP2,2013-01-07 05:52:00,
2013-01-07 00:53:00,29.3,25.3,29.48,West,270,6.0,10.0,85,0.00,,,0.00,WUHU216DAVISVP2,2013-01-07 05:53:00,
2013-01-07 00:56:00,29.2,25.2,29.47,West,272,7.0,10.0,85,0.00,,,0.00,WUHU216DAVISVP2,2013-01-07 05:56:00,
2013-01-07 00:57:00,29.1,25.1,29.47,West,272,5.0,10.0,85,0.00,,,0.00,WUHU216DAVISVP2,2013-01-07 05:57:00,
2013-01-07 00:58:00,29.1,25.1,29.47,West,272,5.0,10.0,85,0.00,,,0.00,WUHU216DAVISVP2,2013-01-07 05:58:00,
2013-01-07 01:02:00,29.0,25.0,29.48,WNW,289,5.0,9.0,85,0.00,,,0.00,WUHU216DAVISVP2,2013-01-07 06:02:00,
2013-01-07 01:03:00,29.0,25.0,29.48,WNW,283,6.0,9.0,85,0.00,,,0.00,WUHU216DAVISVP2,2013-01-07 06:03:00,
2013-01-07 01:07:00,28.9,24.9,29.48,West,273,4.0,9.0,85,0.00,,,0.00,WUHU216DAVISVP2,2013-01-07 06:07:00,
2013-01-07 01:08:00,28.8,24.8,29.48,West,280,7.0,9.0,85,0.00,,,0.00,WUHU216DAVISVP2,2013-01-07 06:08:00,
2013-01-07 01:09:00,28.8,24.8,29.48,West,278,6.0,9.0,85,0.00,,,0.00,WUHU216DAVISVP2,2013-01-07 06:09:00,
2013-01-07 01:12:00,28.7,24.7,29.48,West,268,7.0,9.0,85,0.00,,,0.00,WUHU216DAVISVP2,2013-01-07 06:12:00,
2013-01-07 01:13:00,28.7,24.7,29.48,West,263,8.0,9.0,85,0.00,,,0.00,WUHU216DAVISVP2,2013-01-07 06:13:00,
2013-01-07 01:14:00,28.7,24.7,29.48,West,272,6.0,9.0,85,0.00,,,0.00,WUHU216DAVISVP2,2013-01-07 06:14:00,
2013-01-07 01:17:00,28.6,24.6,29.47,West,261,5.0,9.0,85,0.00,,,0.00,WUHU216DAVISVP2,2013-01-07 06:17:00,
2013-01-07 01:18:00,28.6,24.6,29.47,West,261,4.0,9.0,85,0.00,,,0.00,WUHU216DAVISVP2,2013-01-07 06:18:00,
2013-01-07 01:19:00,28.6,24.7,29.47,West,261,4.0,9.0,85,0.00,,,0.00,WUHU216DAVISVP2,2013-01-07 06:19:00,
2013-01-07 01:22:00,28.5,24.6,29.47,West,261,2.0,8.0,85,0.00,,,0.00,WUHU216DAVISVP2,2013-01-07 06:22:00,
2013-01-07 01:23:00,28.5,24.6,29.47,West,261,1.0,8.0,85,0.00,,,0.00,WUHU216DAVISVP2,2013-01-07 06:23:00,
2013-01-07 01:24:00,28.5,24.6,29.48,West,261,5.0,8.0,85,0.00,,,0.00,WUHU216DAVISVP2,2013-01-07 06:24:00,
2013-01-07 01:27:00,28.4,24.7,29.48,West,261,4.0,8.0,86,0.00,,,0.00,WUHU216DAVISVP2,2013-01-07 06:27:00,
2013-01-07 01:28:00,28.4,24.7,29.48,West,261,4.0,8.0,86,0.00,,,0.00,WUHU216DAVISVP2,2013-01-07 06:28:00,
2013-01-07 01:29:00,28.4,24.7,29.48,West,261,2.0,8.0,86,0.00,,,0.00,WUHU216DAVISVP2,2013-01-07 06:29:00,
2013-01-07 01:32:00,28.2,24.6,29.48,West,261,4.0,8.0,86,0.00,,,0.00,WUHU216DAVISVP2,2013-01-07 06:32:00,
2013-01-07 01:33:00,28.2,24.6,29.48,West,261,4.0,8.0,86,0.00,,,0.00,WUHU216DAVISVP2,2013-01-07 06:33:00,
2013-01-07 01:34:00,28.1,24.5,29.48,West,261,4.0,8.0,86,0.00,,,0.00,WUHU216DAVISVP2,2013-01-07 06:34:00,
2013-01-07 01:35:00,28.1,24.4,29.48,West,261,2.0,8.0,86,0.00,,,0.00,WUHU216DAVISVP2,2013-01-07 06:35:00,
2013-01-07 01:37:00,28.0,24.3,29.48,West,261,4.0,7.0,86,0.00,,,0.00,WUHU216DAVISVP2,2013-01-07 06:37:00,
2013-01-07 01:38:00,28.0,24.3,29.48,West,261,4.0,7.0,86,0.00,,,0.00,WUHU216DAVISVP2,2013-01-07 06:38:00,
2013-01-07 01:39:00,27.9,24.2,29.48,West,261,6.0,7.0,86,0.00,,,0.00,WUHU216DAVISVP2,2013-01-07 06:39:00,
2013-01-07 01:40:00,27.9,24.2,29.48,West,261,5.0,6.0,86,0.00,,,0.00,WUHU216DAVISVP2,2013-01-07 06:40:00,
2013-01-07 01:43:00,27.8,24.1,29.48,West,270,4.0,7.0,86,0.00,,,0.00,WUHU216DAVISVP2,2013-01-07 06:43:00,
2013-01-07 01:44:00,27.7,24.0,29.48,West,270,5.0,8.0,86,0.00,,,0.00,WUHU216DAVISVP2,2013-01-07 06:44:00,
2013-01-07 01:45:00,27.7,24.0,29.48,West,270,5.0,8.0,86,0.00,,,0.00,WUHU216DAVISVP2,2013-01-07 06:45:00,
2013-01-07 01:48:00,27.5,24.1,29.48,West,272,6.0,8.0,87,0.00,,,0.00,WUHU216DAVISVP2,2013-01-07 06:48:00,
2013-01-07 01:49:00,27.5,24.1,29.48,West,272,5.0,8.0,87,0.00,,,0.00,WUHU216DAVISVP2,2013-01-07 06:49:00,
2013-01-07 01:50:00,27.5,24.1,29.48,West,272,5.0,8.0,87,0.00,,,0.00,WUHU216DAVISVP2,2013-01-07 06:50:00,
2013-01-07 01:53:00,27.3,23.9,29.48,WSW,257,4.0,8.0,87,0.00,,,0.00,WUHU216DAVISVP2,2013-01-07 06:53:00,
2013-01-07 01:55:00,27.3,23.9,29.48,West,268,5.0,8.0,87,0.00,,,0.00,WUHU216DAVISVP2,2013-01-07 06:55:00,
2013-01-07 01:58:00,27.1,23.7,29.48,West,276,6.0,8.0,87,0.00,,,0.00,WUHU216DAVISVP2,2013-01-07 06:58:00,
2013-01-07 02:00:00,27.1,23.7,29.48,West,279,6.0,9.0,87,0.00,,,0.00,WUHU216DAVISVP2,2013-01-07 07:00:00,
2013-01-07 02:03:00,27.0,23.9,29.48,West,263,6.0,13.0,88,0.00,,,0.00,WUHU216DAVISVP2,2013-01-07 07:03:00,
2013-01-07 02:05:00,27.0,23.9,29.48,West,281,6.0,13.0,88,0.00,,,0.00,WUHU216DAVISVP2,2013-01-07 07:05:00,
2013-01-07 02:08:00,26.9,23.8,29.48,West,272,4.0,13.0,88,0.00,,,0.00,WUHU216DAVISVP2,2013-01-07 07:08:00,
2013-01-07 02:09:00,26.9,23.8,29.48,West,272,4.0,13.0,88,0.00,,,0.00,WUHU216DAVISVP2,2013-01-07 07:09:00,
2013-01-07 02:10:00,26.8,23.7,29.49,WSW,249,7.0,13.0,88,0.00,,,0.00,WUHU216DAVISVP2,2013-01-07 07:10:00,
2013-01-07 02:13:00,26.7,23.6,29.49,WSW,258,5.0,13.0,88,0.00,,,0.00,WUHU216DAVISVP2,2013-01-07 07:13:00,
2013-01-07 02:14:00,26.6,23.5,29.49,WSW,258,4.0,13.0,88,0.00,,,0.00,WUHU216DAVISVP2,2013-01-07 07:14:00,
2013-01-07 02:15:00,26.6,23.5,29.49,WSW,258,5.0,13.0,88,0.00,,,0.00,WUHU216DAVISVP2,2013-01-07 07:15:00,
2013-01-07 02:18:00,26.5,23.4,29.49,WSW,258,6.0,13.0,88,0.00,,,0.00,WUHU216DAVISVP2,2013-01-07 07:18:00,
2013-01-07 02:19:00,26.5,23.4,29.49,WSW,256,6.0,13.0,88,0.00,,,0.00,WUHU216DAVISVP2,2013-01-07 07:19:00,
2013-01-07 02:20:00,26.4,23.3,29.49,West,273,6.0,13.0,88,0.00,,,0.00,WUHU216DAVISVP2,2013-01-07 07:20:00,
2013-01-07 02:23:00,26.3,23.2,29.50,West,270,5.0,9.0,88,0.00,,,0.00,WUHU216DAVISVP2,2013-01-07 07:23:00,
2013-01-07 02:24:00,26.3,23.2,29.50,West,276,6.0,9.0,88,0.00,,,0.00,WUHU216DAVISVP2,2013-01-07 07:24:00,
2013-01-07 02:25:00,26.3,23.2,29.50,West,264,5.0,9.0,88,0.00,,,0.00,WUHU216DAVISVP2,2013-01-07 07:25:00,
2013-01-07 02:29:00,26.2,23.1,29.50,WSW,254,7.0,10.0,88,0.00,,,0.00,WUHU216DAVISVP2,2013-01-07 07:29:00,
2013-01-07 02:30:00,26.1,23.0,29.50,West,275,4.0,10.0,88,0.00,,,0.00,WUHU216DAVISVP2,2013-01-07 07:30:00,
2013-01-07 02:34:00,26.0,22.9,29.50,West,273,4.0,10.0,88,0.00,,,0.00,WUHU216DAVISVP2,2013-01-07 07:34:00,
2013-01-07 02:35:00,26.0,22.9,29.50,West,272,4.0,10.0,88,0.00,,,0.00,WUHU216DAVISVP2,2013-01-07 07:35:00,
2013-01-07 02:36:00,25.9,22.8,29.50,West,272,5.0,10.0,88,0.00,,,0.00,WUHU216DAVISVP2,2013-01-07 07:36:00,
2013-01-07 02:39:00,25.8,22.7,29.50,West,274,3.0,10.0,88,0.00,,,0.00,WUHU216DAVISVP2,2013-01-07 07:39:00,
2013-01-07 02:40:00,25.8,22.7,29.50,West,265,5.0,10.0,88,0.00,,,0.00,WUHU216DAVISVP2,2013-01-07 07:40:00,
2013-01-07 02:41:00,25.8,22.7,29.50,West,278,8.0,10.0,88,0.00,,,0.00,WUHU216DAVISVP2,2013-01-07 07:41:00,
2013-01-07 02:44:00,25.7,22.6,29.50,West,265,6.0,10.0,88,0.00,,,0.00,WUHU216DAVISVP2,2013-01-07 07:44:00,
2013-01-07 02:45:00,25.6,22.5,29.50,West,268,5.0,10.0,88,0.00,,,0.00,WUHU216DAVISVP2,2013-01-07 07:45:00,
2013-01-07 02:46:00,25.6,22.8,29.50,West,268,6.0,10.0,89,0.00,,,0.00,WUHU216DAVISVP2,2013-01-07 07:46:00,
2013-01-07 02:49:00,25.5,22.4,29.50,West,270,6.0,9.0,88,0.00,,,0.00,WUHU216DAVISVP2,2013-01-07 07:49:00,
2013-01-07 02:50:00,25.6,22.5,29.50,West,262,4.0,9.0,88,0.00,,,0.00,WUHU216DAVISVP2,2013-01-07 07:50:00,
2013-01-07 02:51:00,25.5,22.4,29.50,West,260,6.0,9.0,88,0.00,,,0.00,WUHU216DAVISVP2,2013-01-07 07:51:00,
2013-01-07 02:55:00,25.4,22.6,29.50,West,260,4.0,9.0,89,0.00,,,0.00,WUHU216DAVISVP2,2013-01-07 07:55:00,
2013-01-07 02:56:00,25.3,22.5,29.50,WSW,255,7.0,9.0,89,0.00,,,0.00,WUHU216DAVISVP2,2013-01-07 07:56:00,
2013-01-07 03:00:00,25.3,22.5,29.50,West,264,4.0,9.0,89,0.00,,,0.00,WUHU216DAVISVP2,2013-01-07 08:00:00,
2013-01-07 03:01:00,25.2,22.4,29.51,West,264,4.0,9.0,89,0.00,,,0.00,WUHU216DAVISVP2,2013-01-07 08:01:00,
2013-01-07 03:05:00,25.2,22.4,29.51,West,264,2.0,9.0,89,0.00,,,0.00,WUHU216DAVISVP2,2013-01-07 08:05:00,
2013-01-07 03:06:00,25.2,22.4,29.51,West,264,5.0,9.0,89,0.00,,,0.00,WUHU216DAVISVP2,2013-01-07 08:06:00,
2013-01-07 03:07:00,25.2,22.4,29.51,West,264,2.0,9.0,89,0.00,,,0.00,WUHU216DAVISVP2,2013-01-07 08:07:00,
2013-01-07 03:10:00,25.1,22.3,29.51,West,259,4.0,9.0,89,0.00,,,0.00,WUHU216DAVISVP2,2013-01-07 08:10:00,
2013-01-07 03:11:00,25.0,22.2,29.51,West,259,5.0,9.0,89,0.00,,,0.00,WUHU216DAVISVP2,2013-01-07 08:11:00,
2013-01-07 03:12:00,25.0,22.2,29.51,West,259,5.0,9.0,89,0.00,,,0.00,WUHU216DAVISVP2,2013-01-07 08:12:00,
2013-01-07 03:15:00,24.9,22.1,29.51,WSW,258,5.0,9.0,89,0.00,,,0.00,WUHU216DAVISVP2,2013-01-07 08:15:00,
2013-01-07 03:16:00,24.9,22.1,29.51,West,259,5.0,8.0,89,0.00,,,0.00,WUHU216DAVISVP2,2013-01-07 08:16:00,
2013-01-07 03:17:00,24.9,22.1,29.51,WSW,258,4.0,8.0,89,0.00,,,0.00,WUHU216DAVISVP2,2013-01-07 08:17:00,
2013-01-07 03:20:00,24.8,22.0,29.51,West,259,5.0,8.0,89,0.00,,,0.00,WUHU216DAVISVP2,2013-01-07 08:20:00,
2013-01-07 03:21:00,24.8,22.0,29.51,West,259,4.0,8.0,89,0.00,,,0.00,WUHU216DAVISVP2,2013-01-07 08:21:00,
2013-01-07 03:22:00,24.8,22.0,29.51,West,259,7.0,8.0,89,0.00,,,0.00,WUHU216DAVISVP2,2013-01-07 08:22:00,
2013-01-07 03:25:00,24.7,21.9,29.51,West,260,3.0,8.0,89,0.00,,,0.00,WUHU216DAVISVP2,2013-01-07 08:25:00,
2013-01-07 03:26:00,24.7,21.9,29.51,West,260,6.0,8.0,89,0.00,,,0.00,WUHU216DAVISVP2,2013-01-07 08:26:00,
2013-01-07 03:28:00,24.7,21.9,29.51,West,260,4.0,7.0,89,0.00,,,0.00,WUHU216DAVISVP2,2013-01-07 08:28:00,
2013-01-07 03:30:00,24.6,21.8,29.51,West,260,5.0,7.0,89,0.00,,,0.00,WUHU216DAVISVP2,2013-01-07 08:30:00,
2013-01-07 03:31:00,24.6,21.8,29.51,West,260,5.0,7.0,89,0.00,,,0.00,WUHU216DAVISVP2,2013-01-07 08:31:00,
2013-01-07 03:33:00,24.5,21.7,29.51,West,260,3.0,7.0,89,0.00,,,0.00,WUHU216DAVISVP2,2013-01-07 08:33:00,
2013-01-07 03:35:00,24.5,21.7,29.51,West,260,5.0,7.0,89,0.00,,,0.00,WUHU216DAVISVP2,2013-01-07 08:35:00,
2013-01-07 03:36:00,24.4,21.6,29.51,West,260,5.0,7.0,89,0.00,,,0.00,WUHU216DAVISVP2,2013-01-07 08:36:00,
2013-01-07 03:38:00,24.4,21.6,29.51,West,260,3.0,7.0,89,0.00,,,0.00,WUHU216DAVISVP2,2013-01-07 08:38:00,
2013-01-07 03:41:00,24.3,21.5,29.51,West,260,5.0,7.0,89,0.00,,,0.00,WUHU216DAVISVP2,2013-01-07 08:41:00,
2013-01-07 03:43:00,24.3,21.7,29.50,West,260,3.0,7.0,90,0.00,,,0.00,WUHU216DAVISVP2,2013-01-07 08:43:00,
2013-01-07 03:46:00,24.3,21.7,29.50,West,260,1.0,7.0,90,0.00,,,0.00,WUHU216DAVISVP2,2013-01-07 08:46:00,
2013-01-07 03:48:00,24.2,21.6,29.50,West,260,4.0,7.0,90,0.00,,,0.00,WUHU216DAVISVP2,2013-01-07 08:48:00,
2013-01-07 03:51:00,24.2,21.6,29.51,West,260,4.0,7.0,90,0.00,,,0.00,WUHU216DAVISVP2,2013-01-07 08:51:00,
2013-01-07 03:53:00,24.2,21.6,29.51,West,260,6.0,7.0,90,0.00,,,0.00,WUHU216DAVISVP2,2013-01-07 08:53:00,
2013-01-07 03:56:00,24.1,21.5,29.51,West,260,4.0,7.0,90,0.00,,,0.00,WUHU216DAVISVP2,2013-01-07 08:56:00,
2013-01-07 03:57:00,24.0,21.4,29.51,West,260,4.0,7.0,90,0.00,,,0.00,WUHU216DAVISVP2,2013-01-07 08:57:00,
2013-01-07 03:58:00,24.0,21.4,29.51,West,260,4.0,7.0,90,0.00,,,0.00,WUHU216DAVISVP2,2013-01-07 08:58:00,
2013-01-07 04:01:00,23.9,21.3,29.51,West,260,6.0,7.0,90,0.00,,,0.00,WUHU216DAVISVP2,2013-01-07 09:01:00,
2013-01-07 04:02:00,23.9,21.3,29.51,West,260,6.0,7.0,90,0.00,,,0.00,WUHU216DAVISVP2,2013-01-07 09:02:00,
2013-01-07 04:04:00,23.8,21.2,29.52,West,260,3.0,7.0,90,0.00,,,0.00,WUHU216DAVISVP2,2013-01-07 09:04:00,
2013-01-07 04:07:00,23.7,21.1,29.52,West,260,3.0,7.0,90,0.00,,,0.00,WUHU216DAVISVP2,2013-01-07 09:07:00,
2013-01-07 04:09:00,23.6,21.0,29.52,West,260,3.0,7.0,90,0.00,,,0.00,WUHU216DAVISVP2,2013-01-07 09:09:00,
2013-01-07 04:12:00,23.6,21.0,29.52,West,260,2.0,7.0,90,0.00,,,0.00,WUHU216DAVISVP2,2013-01-07 09:12:00,
2013-01-07 04:14:00,23.5,21.0,29.51,West,260,2.0,7.0,90,0.00,,,0.00,WUHU216DAVISVP2,2013-01-07 09:14:00,
2013-01-07 04:16:00,23.5,21.0,29.52,West,260,3.0,7.0,90,0.00,,,0.00,WUHU216DAVISVP2,2013-01-07 09:16:00,
2013-01-07 04:17:00,23.5,21.0,29.52,West,260,4.0,7.0,90,0.00,,,0.00,WUHU216DAVISVP2,2013-01-07 09:17:00,
2013-01-07 04:19:00,23.4,20.9,29.52,West,261,6.0,7.0,90,0.00,,,0.00,WUHU216DAVISVP2,2013-01-07 09:19:00,
2013-01-07 04:22:00,23.4,20.9,29.52,West,261,5.0,7.0,90,0.00,,,0.00,WUHU216DAVISVP2,2013-01-07 09:22:00,
2013-01-07 04:24:00,23.4,20.9,29.52,West,280,4.0,9.0,90,0.00,,,0.00,WUHU216DAVISVP2,2013-01-07 09:24:00,
2013-01-07 04:27:00,23.3,20.8,29.52,West,273,6.0,9.0,90,0.00,,,0.00,WUHU216DAVISVP2,2013-01-07 09:27:00,
2013-01-07 04:29:00,23.3,20.8,29.52,West,273,4.0,9.0,90,0.00,,,0.00,WUHU216DAVISVP2,2013-01-07 09:29:00,
2013-01-07 04:32:00,23.3,20.8,29.53,West,273,2.0,9.0,90,0.00,,,0.00,WUHU216DAVISVP2,2013-01-07 09:32:00,
2013-01-07 04:33:00,23.3,20.8,29.52,West,273,4.0,9.0,90,0.00,,,0.00,WUHU216DAVISVP2,2013-01-07 09:33:00,
2013-01-07 04:34:00,23.2,20.7,29.52,West,274,5.0,9.0,90,0.00,,,0.00,WUHU216DAVISVP2,2013-01-07 09:34:00,
2013-01-07 04:37:00,23.2,20.7,29.52,West,273,5.0,9.0,90,0.00,,,0.00,WUHU216DAVISVP2,2013-01-07 09:37:00,
2013-01-07 04:38:00,23.2,20.7,29.52,West,273,2.0,9.0,90,0.00,,,0.00,WUHU216DAVISVP2,2013-01-07 09:38:00,
2013-01-07 04:39:00,23.1,20.6,29.52,West,273,2.0,9.0,90,0.00,,,0.00,WUHU216DAVISVP2,2013-01-07 09:39:00,
2013-01-07 04:42:00,23.1,20.6,29.52,West,262,4.0,9.0,90,0.00,,,0.00,WUHU216DAVISVP2,2013-01-07 09:42:00,
2013-01-07 04:43:00,23.0,20.5,29.52,West,262,4.0,8.0,90,0.00,,,0.00,WUHU216DAVISVP2,2013-01-07 09:43:00,
2013-01-07 04:44:00,23.0,20.5,29.52,West,262,4.0,8.0,90,0.00,,,0.00,WUHU216DAVISVP2,2013-01-07 09:44:00,
2013-01-07 04:47:00,23.0,20.5,29.52,West,262,2.0,7.0,90,0.00,,,0.00,WUHU216DAVISVP2,2013-01-07 09:47:00,
2013-01-07 04:48:00,22.9,20.6,29.52,West,262,4.0,7.0,91,0.00,,,0.00,WUHU216DAVISVP2,2013-01-07 09:48:00,
2013-01-07 04:50:00,22.9,20.6,29.52,West,262,2.0,7.0,91,0.00,,,0.00,WUHU216DAVISVP2,2013-01-07 09:50:00,
2013-01-07 04:52:00,22.9,20.6,29.52,West,262,2.0,7.0,91,0.00,,,0.00,WUHU216DAVISVP2,2013-01-07 09:52:00,
2013-01-07 04:53:00,22.8,20.3,29.52,West,262,3.0,7.0,90,0.00,,,0.00,WUHU216DAVISVP2,2013-01-07 09:53:00,
2013-01-07 04:55:00,22.8,20.3,29.52,West,262,2.0,7.0,90,0.00,,,0.00,WUHU216DAVISVP2,2013-01-07 09:55:00,
2013-01-07 04:57:00,22.8,20.3,29.52,West,262,2.0,7.0,90,0.00,,,0.00,WUHU216DAVISVP2,2013-01-07 09:57:00,
2013-01-07 04:58:00,22.7,20.2,29.52,West,262,1.0,7.0,90,0.00,,,0.00,WUHU216DAVISVP2,2013-01-07 09:58:00,
2013-01-07 05:00:00,22.7,20.4,29.52,West,262,0.0,7.0,91,0.00,,,0.00,WUHU216DAVISVP2,2013-01-07 10:00:00,
2013-01-07 05:02:00,22.6,20.3,29.52,West,262,4.0,6.0,91,0.00,,,0.00,WUHU216DAVISVP2,2013-01-07 10:02:00,
2013-01-07 05:03:00,22.6,20.3,29.52,West,262,2.0,6.0,91,0.00,,,0.00,WUHU216DAVISVP2,2013-01-07 10:03:00,
2013-01-07 05:04:00,22.6,20.3,29.52,West,262,3.0,6.0,91,0.00,,,0.00,WUHU216DAVISVP2,2013-01-07 10:04:00,
2013-01-07 05:05:00,22.6,20.3,29.52,West,262,5.0,6.0,91,0.00,,,0.00,WUHU216DAVISVP2,2013-01-07 10:05:00,
2013-01-07 05:07:00,22.6,20.3,29.52,West,262,2.0,6.0,91,0.00,,,0.00,WUHU216DAVISVP2,2013-01-07 10:07:00,
2013-01-07 05:08:00,22.6,20.3,29.52,West,262,3.0,6.0,91,0.00,,,0.00,WUHU216DAVISVP2,2013-01-07 10:08:00,
2013-01-07 05:09:00,22.6,20.3,29.52,West,262,2.0,6.0,91,0.00,,,0.00,WUHU216DAVISVP2,2013-01-07 10:09:00,
2013-01-07 05:10:00,22.6,20.3,29.52,West,262,4.0,6.0,91,0.00,,,0.00,WUHU216DAVISVP2,2013-01-07 10:10:00,
2013-01-07 05:13:00,22.5,20.2,29.52,West,262,2.0,6.0,91,0.00,,,0.00,WUHU216DAVISVP2,2013-01-07 10:13:00,
2013-01-07 05:14:00,22.5,20.2,29.52,West,262,2.0,6.0,91,0.00,,,0.00,WUHU216DAVISVP2,2013-01-07 10:14:00,
2013-01-07 05:15:00,22.5,20.2,29.52,West,262,4.0,6.0,91,0.00,,,0.00,WUHU216DAVISVP2,2013-01-07 10:15:00,
2013-01-07 05:18:00,22.5,20.2,29.52,West,262,2.0,6.0,91,0.00,,,0.00,WUHU216DAVISVP2,2013-01-07 10:18:00,
2013-01-07 05:19:00,22.4,20.1,29.52,West,262,2.0,6.0,91,0.00,,,0.00,WUHU216DAVISVP2,2013-01-07 10:19:00,
2013-01-07 05:20:00,22.4,20.1,29.52,West,262,1.0,5.0,91,0.00,,,0.00,WUHU216DAVISVP2,2013-01-07 10:20:00,
2013-01-07 05:23:00,22.3,20.0,29.52,West,262,1.0,5.0,91,0.00,,,0.00,WUHU216DAVISVP2,2013-01-07 10:23:00,
2013-01-07 05:24:00,22.3,20.0,29.52,West,262,2.0,5.0,91,0.00,,,0.00,WUHU216DAVISVP2,2013-01-07 10:24:00,
2013-01-07 05:25:00,22.2,19.9,29.52,West,262,2.0,5.0,91,0.00,,,0.00,WUHU216DAVISVP2,2013-01-07 10:25:00,
2013-01-07 05:28:00,22.2,19.9,29.52,West,262,2.0,5.0,91,0.00,,,0.00,WUHU216DAVISVP2,2013-01-07 10:28:00,
2013-01-07 05:29:00,22.2,19.9,29.52,West,262,2.0,5.0,91,0.00,,,0.00,WUHU216DAVISVP2,2013-01-07 10:29:00,
2013-01-07 05:30:00,22.2,19.9,29.52,West,262,3.0,5.0,91,0.00,,,0.00,WUHU216DAVISVP2,2013-01-07 10:30:00,
2013-01-07 05:33:00,22.1,19.8,29.52,West,262,4.0,5.0,91,0.00,,,0.00,WUHU216DAVISVP2,2013-01-07 10:33:00,
2013-01-07 05:34:00,22.1,19.8,29.52,West,262,2.0,5.0,91,0.00,,,0.00,WUHU216DAVISVP2,2013-01-07 10:34:00,
2013-01-07 05:36:00,22.1,19.8,29.52,West,262,5.0,5.0,91,0.00,,,0.00,WUHU216DAVISVP2,2013-01-07 10:36:00,
2013-01-07 05:38:00,22.1,19.8,29.52,West,262,2.0,5.0,91,0.00,,,0.00,WUHU216DAVISVP2,2013-01-07 10:38:00,
2013-01-07 05:40:00,22.0,19.7,29.52,West,262,2.0,5.0,91,0.00,,,0.00,WUHU216DAVISVP2,2013-01-07 10:40:00,
2013-01-07 05:41:00,22.0,19.7,29.52,West,262,5.0,5.0,91,0.00,,,0.00,WUHU216DAVISVP2,2013-01-07 10:41:00,
2013-01-07 05:43:00,22.1,19.8,29.52,West,262,5.0,7.0,91,0.00,,,0.00,WUHU216DAVISVP2,2013-01-07 10:43:00,
2013-01-07 05:45:00,22.1,19.8,29.52,West,262,4.0,7.0,91,0.00,,,0.00,WUHU216DAVISVP2,2013-01-07 10:45:00,
2013-01-07 05:46:00,22.0,19.7,29.52,West,262,2.0,7.0,91,0.00,,,0.00,WUHU216DAVISVP2,2013-01-07 10:46:00,
2013-01-07 05:48:00,22.0,19.7,29.52,West,262,4.0,7.0,91,0.00,,,0.00,WUHU216DAVISVP2,2013-01-07 10:48:00,
2013-01-07 05:50:00,22.0,19.7,29.52,West,262,4.0,7.0,91,0.00,,,0.00,WUHU216DAVISVP2,2013-01-07 10:50:00,
2013-01-07 05:51:00,22.0,19.7,29.52,West,262,5.0,7.0,91,0.00,,,0.00,WUHU216DAVISVP2,2013-01-07 10:51:00,
2013-01-07 05:53:00,22.0,19.7,29.52,West,262,5.0,7.0,91,0.00,,,0.00,WUHU216DAVISVP2,2013-01-07 10:53:00,
2013-01-07 05:55:00,22.0,19.7,29.52,West,262,4.0,7.0,91,0.00,,,0.00,WUHU216DAVISVP2,2013-01-07 10:55:00,
2013-01-07 05:56:00,22.0,20.0,29.52,West,262,3.0,7.0,92,0.00,,,0.00,WUHU216DAVISVP2,2013-01-07 10:56:00,
2013-01-07 05:58:00,21.9,19.9,29.52,West,260,4.0,7.0,92,0.00,,,0.00,WUHU216DAVISVP2,2013-01-07 10:58:00,
2013-01-07 06:00:00,21.9,19.9,29.52,West,260,2.0,7.0,92,0.00,,,0.00,WUHU216DAVISVP2,2013-01-07 11:00:00,
2013-01-07 06:01:00,21.9,19.9,29.52,West,260,5.0,7.0,92,0.00,,,0.00,WUHU216DAVISVP2,2013-01-07 11:01:00,
2013-01-07 06:03:00,21.8,19.5,29.52,West,260,1.0,6.0,91,0.00,,,0.00,WUHU216DAVISVP2,2013-01-07 11:03:00,
2013-01-07 06:05:00,21.8,19.5,29.53,West,260,2.0,6.0,91,0.00,,,0.00,WUHU216DAVISVP2,2013-01-07 11:05:00,
2013-01-07 06:06:00,21.8,19.5,29.53,West,260,0.0,6.0,91,0.00,,,0.00,WUHU216DAVISVP2,2013-01-07 11:06:00,
2013-01-07 06:08:00,21.8,19.8,29.53,West,260,0.0,6.0,92,0.00,,,0.00,WUHU216DAVISVP2,2013-01-07 11:08:00,
2013-01-07 06:10:00,21.7,19.7,29.53,West,260,2.0,6.0,92,0.00,,,0.00,WUHU216DAVISVP2,2013-01-07 11:10:00,
2013-01-07 06:11:00,21.7,19.7,29.53,West,260,2.0,6.0,92,0.00,,,0.00,WUHU216DAVISVP2,2013-01-07 11:11:00,
2013-01-07 06:13:00,21.7,19.7,29.53,West,260,0.0,6.0,92,0.00,,,0.00,WUHU216DAVISVP2,2013-01-07 11:13:00,
2013-01-07 06:15:00,21.6,19.6,29.53,West,259,2.0,6.0,92,0.00,,,0.00,WUHU216DAVISVP2,2013-01-07 11:15:00,
2013-01-07 06:16:00,21.6,19.6,29.53,West,259,3.0,6.0,92,0.00,,,0.00,WUHU216DAVISVP2,2013-01-07 11:16:00,
2013-01-07 06:18:00,21.5,19.5,29.53,West,260,0.0,6.0,92,0.00,,,0.00,WUHU216DAVISVP2,2013-01-07 11:18:00,
2013-01-07 06:20:00,21.5,19.5,29.53,West,260,0.0,6.0,92,0.00,,,0.00,WUHU216DAVISVP2,2013-01-07 11:20:00,
2013-01-07 06:21:00,21.5,19.5,29.53,West,260,0.0,6.0,92,0.00,,,0.00,WUHU216DAVISVP2,2013-01-07 11:21:00,
2013-01-07 06:24:00,21.3,19.3,29.54,West,259,4.0,6.0,92,0.00,,,0.00,WUHU216DAVISVP2,2013-01-07 11:24:00,
2013-01-07 06:26:00,21.3,19.3,29.54,West,259,2.0,6.0,92,0.00,,,0.00,WUHU216DAVISVP2,2013-01-07 11:26:00,
2013-01-07 06:29:00,21.2,19.2,29.54,West,259,0.0,6.0,92,0.00,,,0.00,WUHU216DAVISVP2,2013-01-07 11:29:00,
2013-01-07 06:31:00,21.1,19.1,29.54,West,259,0.0,6.0,92,0.00,,,0.00,WUHU216DAVISVP2,2013-01-07 11:31:00,
2013-01-07 06:34:00,21.0,19.0,29.54,West,259,0.0,6.0,92,0.00,,,0.00,WUHU216DAVISVP2,2013-01-07 11:34:00,
2013-01-07 06:36:00,21.0,19.0,29.54,West,259,0.0,6.0,92,0.00,,,0.00,WUHU216DAVISVP2,2013-01-07 11:36:00,
2013-01-07 06:39:00,20.9,18.9,29.54,West,259,0.0,6.0,92,0.00,,,0.00,WUHU216DAVISVP2,2013-01-07 11:39:00,
2013-01-07 06:41:00,20.8,18.8,29.54,West,259,2.0,6.0,92,0.00,,,0.00,WUHU216DAVISVP2,2013-01-07 11:41:00,
2013-01-07 06:42:00,20.8,18.8,29.55,West,259,1.0,6.0,92,0.00,,,0.00,WUHU216DAVISVP2,2013-01-07 11:42:00,
2013-01-07 06:44:00,20.6,18.6,29.55,West,259,0.0,6.0,92,0.00,,,0.00,WUHU216DAVISVP2,2013-01-07 11:44:00,
2013-01-07 06:46:00,20.6,18.6,29.55,West,259,1.0,6.0,92,0.00,,,0.00,WUHU216DAVISVP2,2013-01-07 11:46:00,
2013-01-07 06:47:00,20.6,18.6,29.55,West,259,5.0,6.0,92,0.00,,,0.00,WUHU216DAVISVP2,2013-01-07 11:47:00,
2013-01-07 06:49:00,20.5,18.5,29.55,West,259,1.0,6.0,92,0.00,,,0.00,WUHU216DAVISVP2,2013-01-07 11:49:00,
2013-01-07 06:51:00,20.4,18.4,29.55,West,259,0.0,6.0,92,0.00,,,0.00,WUHU216DAVISVP2,2013-01-07 11:51:00,
2013-01-07 06:52:00,20.4,18.4,29.55,West,259,0.0,6.0,92,0.00,,,0.00,WUHU216DAVISVP2,2013-01-07 11:52:00,
2013-01-07 06:54:00,20.3,18.3,29.55,West,259,2.0,6.0,92,0.00,,,0.00,WUHU216DAVISVP2,2013-01-07 11:54:00,
2013-01-07 06:56:00,20.2,18.2,29.55,WSW,256,0.0,6.0,92,0.00,,,0.00,WUHU216DAVISVP2,2013-01-07 11:56:00,
2013-01-07 06:57:00,20.2,18.2,29.55,SW,224,3.0,6.0,92,0.00,,,0.00,WUHU216DAVISVP2,2013-01-07 11:57:00,
2013-01-07 07:00:00,20.1,18.1,29.55,SW,217,2.0,6.0,92,0.00,,,0.00,WUHU216DAVISVP2,2013-01-07 12:00:00,
2013-01-07 07:01:00,20.1,18.1,29.55,SW,217,1.0,6.0,92,0.00,,,0.00,WUHU216DAVISVP2,2013-01-07 12:01:00,
2013-01-07 07:02:00,20.1,18.1,29.55,SW,217,2.0,6.0,92,0.00,,,0.00,WUHU216DAVISVP2,2013-01-07 12:02:00,
2013-01-07 07:05:00,20.0,18.0,29.55,SW,217,2.0,6.0,92,0.00,,,0.00,WUHU216DAVISVP2,2013-01-07 12:05:00,
2013-01-07 07:07:00,19.9,17.9,29.55,SW,217,0.0,6.0,92,0.00,,,0.00,WUHU216DAVISVP2,2013-01-07 12:07:00,
2013-01-07 07:10:00,19.9,17.9,29.55,SW,217,1.0,6.0,92,0.00,,,0.00,WUHU216DAVISVP2,2013-01-07 12:10:00,
2013-01-07 07:12:00,19.9,17.9,29.55,SW,217,3.0,6.0,92,0.00,,,0.00,WUHU216DAVISVP2,2013-01-07 12:12:00,
2013-01-07 07:15:00,19.9,17.9,29.55,WSW,239,6.0,9.0,92,0.00,,,0.00,WUHU216DAVISVP2,2013-01-07 12:15:00,
2013-01-07 07:17:00,19.9,17.9,29.56,WSW,246,2.0,9.0,92,0.00,,,0.00,WUHU216DAVISVP2,2013-01-07 12:17:00,
2013-01-07 07:20:00,20.0,18.0,29.55,WSW,239,8.0,9.0,92,0.00,,,0.00,WUHU216DAVISVP2,2013-01-07 12:20:00,
2013-01-07 07:22:00,20.0,18.0,29.55,SW,225,2.0,9.0,92,0.00,,,0.00,WUHU216DAVISVP2,2013-01-07 12:22:00,
2013-01-07 07:23:00,20.0,18.0,29.55,SW,225,0.0,9.0,92,0.00,,,0.00,WUHU216DAVISVP2,2013-01-07 12:23:00,
2013-01-07 07:25:00,20.0,18.0,29.56,SW,216,0.0,9.0,92,0.00,,,0.00,WUHU216DAVISVP2,2013-01-07 12:25:00,
2013-01-07 07:27:00,19.9,17.9,29.55,SSW,206,0.0,9.0,92,0.00,,,0.00,WUHU216DAVISVP2,2013-01-07 12:27:00,
2013-01-07 07:28:00,19.9,17.9,29.56,SSW,207,0.0,9.0,92,0.00,,,0.00,WUHU216DAVISVP2,2013-01-07 12:28:00,
2013-01-07 07:30:00,19.8,17.8,29.55,SSW,210,2.0,9.0,92,0.00,,,0.00,WUHU216DAVISVP2,2013-01-07 12:30:00,
2013-01-07 07:32:00,19.8,17.8,29.55,SW,214,0.0,9.0,92,0.00,,,0.00,WUHU216DAVISVP2,2013-01-07 12:32:00,
2013-01-07 07:33:00,19.8,17.8,29.55,SW,214,5.0,9.0,92,0.00,,,0.00,WUHU216DAVISVP2,2013-01-07 12:33:00,
2013-01-07 07:35:00,19.7,17.7,29.55,SW,214,0.0,9.0,92,0.00,,,0.00,WUHU216DAVISVP2,2013-01-07 12:35:00,
2013-01-07 07:37:00,19.6,17.6,29.56,SW,214,0.0,9.0,92,0.00,,,0.00,WUHU216DAVISVP2,2013-01-07 12:37:00,
2013-01-07 07:38:00,19.6,17.6,29.56,SW,214,0.0,8.0,92,0.00,,,0.00,WUHU216DAVISVP2,2013-01-07 12:38:00,
2013-01-07 07:40:00,19.5,17.5,29.55,SW,214,1.0,7.0,92,0.00,,,0.00,WUHU216DAVISVP2,2013-01-07 12:40:00,
2013-01-07 07:42:00,19.4,17.4,29.55,SW,214,0.0,6.0,92,0.00,,,0.00,WUHU216DAVISVP2,2013-01-07 12:42:00,
2013-01-07 07:43:00,19.4,17.4,29.55,SW,214,2.0,6.0,92,0.00,,,0.00,WUHU216DAVISVP2,2013-01-07 12:43:00,
2013-01-07 07:45:00,19.3,19.3,29.56,SW,214,3.0,6.0,100,0.00,,,0.00,WUHU216DAVISVP2,2013-01-07 12:45:00,
2013-01-07 07:47:00,19.3,17.3,29.56,SW,214,5.0,6.0,92,0.00,,,0.00,WUHU216DAVISVP2,2013-01-07 12:47:00,
2013-01-07 07:48:00,19.3,17.3,29.56,SW,214,2.0,6.0,92,0.00,,,0.00,WUHU216DAVISVP2,2013-01-07 12:48:00,
2013-01-07 07:49:00,19.3,17.3,29.55,SW,214,0.0,6.0,92,0.00,,,0.00,WUHU216DAVISVP2,2013-01-07 12:49:00,
2013-01-07 07:50:00,19.2,17.2,29.56,SW,214,4.0,6.0,92,0.00,,,0.00,WUHU216DAVISVP2,2013-01-07 12:50:00,
2013-01-07 07:52:00,19.2,17.2,29.56,SW,214,2.0,6.0,92,0.00,,,0.00,WUHU216DAVISVP2,2013-01-07 12:52:00,
2013-01-07 07:53:00,19.1,17.1,29.56,SW,214,1.0,6.0,92,0.00,,,0.00,WUHU216DAVISVP2,2013-01-07 12:53:00,
2013-01-07 07:54:00,19.1,17.1,29.56,SW,214,1.0,6.0,92,0.00,,,0.00,WUHU216DAVISVP2,2013-01-07 12:54:00,
2013-01-07 07:56:00,19.1,17.1,29.56,SW,214,2.0,6.0,92,0.00,,,0.00,WUHU216DAVISVP2,2013-01-07 12:56:00,
2013-01-07 07:57:00,19.1,17.1,29.56,SW,214,1.0,6.0,92,0.00,,,0.00,WUHU216DAVISVP2,2013-01-07 12:57:00,
2013-01-07 07:59:00,19.1,17.1,29.56,SW,214,1.0,6.0,92,0.00,,,0.00,WUHU216DAVISVP2,2013-01-07 12:59:00,
2013-01-07 08:01:00,19.1,17.1,29.56,SW,214,1.0,6.0,92,0.00,,,0.00,WUHU216DAVISVP2,2013-01-07 13:01:00,
2013-01-07 08:02:00,19.1,17.1,29.56,SW,214,5.0,6.0,92,0.00,,,0.00,WUHU216DAVISVP2,2013-01-07 13:02:00,
2013-01-07 08:04:00,19.0,17.0,29.56,SW,214,2.0,6.0,92,0.00,,,0.00,WUHU216DAVISVP2,2013-01-07 13:04:00,
2013-01-07 08:07:00,19.0,17.0,29.56,SW,214,2.0,6.0,92,0.00,,,0.00,WUHU216DAVISVP2,2013-01-07 13:07:00,
2013-01-07 08:08:00,19.0,17.0,29.56,SW,214,0.0,6.0,92,0.00,,,0.00,WUHU216DAVISVP2,2013-01-07 13:08:00,
2013-01-07 08:09:00,19.0,17.0,29.56,SW,214,0.0,6.0,92,0.00,,,0.00,WUHU216DAVISVP2,2013-01-07 13:09:00,
2013-01-07 08:12:00,19.0,17.0,29.56,SW,214,3.0,6.0,92,0.00,,,0.00,WUHU216DAVISVP2,2013-01-07 13:12:00,
2013-01-07 08:13:00,19.0,17.0,29.56,SW,214,0.0,6.0,92,0.00,,,0.00,WUHU216DAVISVP2,2013-01-07 13:13:00,
2013-01-07 08:14:00,19.0,17.0,29.56,SW,214,4.0,6.0,92,0.00,,,0.00,WUHU216DAVISVP2,2013-01-07 13:14:00,
2013-01-07 08:15:00,19.0,17.0,29.56,SW,214,4.0,6.0,92,0.00,,,0.00,WUHU216DAVISVP2,2013-01-07 13:15:00,
2013-01-07 08:17:00,19.0,17.0,29.56,SW,215,1.0,6.0,92,0.00,,,0.00,WUHU216DAVISVP2,2013-01-07 13:17:00,
2013-01-07 08:18:00,19.0,17.0,29.55,SSW,198,5.0,6.0,92,0.00,,,0.00,WUHU216DAVISVP2,2013-01-07 13:18:00,
2013-01-07 08:20:00,19.0,17.0,29.56,SSW,197,4.0,6.0,92,0.00,,,0.00,WUHU216DAVISVP2,2013-01-07 13:20:00,
2013-01-07 08:22:00,19.0,17.0,29.55,South,191,0.0,6.0,92,0.00,,,0.00,WUHU216DAVISVP2,2013-01-07 13:22:00,
2013-01-07 08:23:00,18.9,16.9,29.55,SSW,211,2.0,6.0,92,0.00,,,0.00,WUHU216DAVISVP2,2013-01-07 13:23:00,
2013-01-07 08:25:00,18.9,16.9,29.55,SSW,210,1.0,6.0,92,0.00,,,0.00,WUHU216DAVISVP2,2013-01-07 13:25:00,
2013-01-07 08:27:00,18.9,16.9,29.56,SSW,204,0.0,6.0,92,0.00,,,0.00,WUHU216DAVISVP2,2013-01-07 13:27:00,
2013-01-07 08:29:00,18.9,16.9,29.56,South,189,6.0,6.0,92,0.00,,,0.00,WUHU216DAVISVP2,2013-01-07 13:29:00,
2013-01-07 08:30:00,18.9,16.9,29.55,South,191,2.0,7.0,92,0.00,,,0.00,WUHU216DAVISVP2,2013-01-07 13:30:00,
2013-01-07 08:32:00,19.0,17.0,29.56,SSW,209,5.0,7.0,92,0.00,,,0.00,WUHU216DAVISVP2,2013-01-07 13:32:00,
2013-01-07 08:34:00,19.0,17.0,29.56,SW,216,0.0,7.0,92,0.00,,,0.00,WUHU216DAVISVP2,2013-01-07 13:34:00,
2013-01-07 08:35:00,19.0,17.0,29.56,South,187,4.0,7.0,92,0.00,,,0.00,WUHU216DAVISVP2,2013-01-07 13:35:00,
2013-01-07 08:37:00,19.0,17.3,29.56,SSW,192,6.0,7.0,93,0.00,,,0.00,WUHU216DAVISVP2,2013-01-07 13:37:00,
2013-01-07 08:40:00,19.1,17.4,29.56,SSW,197,0.0,7.0,93,0.00,,,0.00,WUHU216DAVISVP2,2013-01-07 13:40:00,
2013-01-07 08:42:00,19.1,17.4,29.56,SSW,212,1.0,8.0,93,0.00,,,0.00,WUHU216DAVISVP2,2013-01-07 13:42:00,
2013-01-07 08:45:00,19.2,17.5,29.56,South,191,6.0,8.0,93,0.00,,,0.00,WUHU216DAVISVP2,2013-01-07 13:45:00,
2013-01-07 08:47:00,19.3,17.6,29.56,South,187,5.0,8.0,93,0.00,,,0.00,WUHU216DAVISVP2,2013-01-07 13:47:00,
2013-01-07 08:50:00,19.3,17.6,29.56,South,187,5.0,8.0,93,0.00,,,0.00,WUHU216DAVISVP2,2013-01-07 13:50:00,
2013-01-07 08:53:00,19.4,17.4,29.56,SSW,210,3.0,8.0,92,0.00,,,0.00,WUHU216DAVISVP2,2013-01-07 13:53:00,
2013-01-07 08:55:00,19.4,17.4,29.56,SSW,192,1.0,8.0,92,0.00,,,0.00,WUHU216DAVISVP2,2013-01-07 13:55:00,
2013-01-07 08:58:00,19.5,17.5,29.56,SSW,209,1.0,8.0,92,0.00,,,0.00,WUHU216DAVISVP2,2013-01-07 13:58:00,
2013-01-07 09:00:00,19.6,17.6,29.56,SSW,193,4.0,7.0,92,0.00,,,0.00,WUHU216DAVISVP2,2013-01-07 14:00:00,
2013-01-07 09:01:00,19.6,17.6,29.56,SSW,197,1.0,7.0,92,0.00,,,0.00,WUHU216DAVISVP2,2013-01-07 14:01:00,
2013-01-07 09:03:00,19.7,17.7,29.56,SSW,195,2.0,7.0,92,0.00,,,0.00,WUHU216DAVISVP2,2013-01-07 14:03:00,
2013-01-07 09:05:00,19.7,18.0,29.56,SW,220,6.0,7.0,93,0.00,,,0.00,WUHU216DAVISVP2,2013-01-07 14:05:00,
2013-01-07 09:06:00,19.7,18.0,29.56,SSW,194,1.0,7.0,93,0.00,,,0.00,WUHU216DAVISVP2,2013-01-07 14:06:00,
2013-01-07 09:09:00,19.9,18.2,29.56,SSW,200,1.0,7.0,93,0.00,,,0.00,WUHU216DAVISVP2,2013-01-07 14:09:00,
2013-01-07 09:10:00,20.0,18.3,29.56,SSW,201,4.0,7.0,93,0.00,,,0.00,WUHU216DAVISVP2,2013-01-07 14:10:00,
2013-01-07 09:11:00,20.0,18.0,29.56,South,170,4.0,7.0,92,0.00,,,0.00,WUHU216DAVISVP2,2013-01-07 14:11:00,
2013-01-07 09:14:00,20.1,18.1,29.56,SW,231,5.0,8.0,92,0.00,,,0.00,WUHU216DAVISVP2,2013-01-07 14:14:00,
2013-01-07 09:15:00,20.2,18.2,29.56,SSW,201,2.0,8.0,92,0.00,,,0.00,WUHU216DAVISVP2,2013-01-07 14:15:00,
2013-01-07 09:16:00,20.2,18.2,29.56,SW,215,1.0,8.0,92,0.00,,,0.00,WUHU216DAVISVP2,2013-01-07 14:16:00,
2013-01-07 09:19:00,20.4,18.7,29.56,South,186,8.0,9.0,93,0.00,,,0.00,WUHU216DAVISVP2,2013-01-07 14:19:00,
2013-01-07 09:20:00,20.5,18.7,29.56,SSW,212,3.0,9.0,93,0.00,,,0.00,WUHU216DAVISVP2,2013-01-07 14:20:00,
2013-01-07 09:21:00,20.5,18.7,29.56,South,191,7.0,12.0,93,0.00,,,0.00,WUHU216DAVISVP2,2013-01-07 14:21:00,
2013-01-07 09:24:00,20.7,18.7,29.56,South,189,8.0,12.0,92,0.00,,,0.00,WUHU216DAVISVP2,2013-01-07 14:24:00,
2013-01-07 09:25:00,20.7,18.9,29.56,SW,228,3.0,12.0,93,0.00,,,0.00,WUHU216DAVISVP2,2013-01-07 14:25:00,
2013-01-07 09:26:00,20.7,18.9,29.56,SSW,200,5.0,12.0,93,0.00,,,0.00,WUHU216DAVISVP2,2013-01-07 14:26:00,
2013-01-07 09:29:00,20.8,18.8,29.56,SW,236,5.0,12.0,92,0.00,,,0.00,WUHU216DAVISVP2,2013-01-07 14:29:00,
2013-01-07 09:30:00,20.8,18.8,29.56,South,183,7.0,12.0,92,0.00,,,0.00,WUHU216DAVISVP2,2013-01-07 14:30:00,
2013-01-07 09:31:00,20.9,18.9,29.56,SW,222,0.0,12.0,92,0.00,,,0.00,WUHU216DAVISVP2,2013-01-07 14:31:00,
2013-01-07 09:32:00,20.9,18.9,29.56,SW,216,4.0,12.0,92,0.00,,,0.00,WUHU216DAVISVP2,2013-01-07 14:32:00,
2013-01-07 09:34:00,21.1,19.1,29.56,SSW,211,0.0,14.0,92,0.00,,,0.00,WUHU216DAVISVP2,2013-01-07 14:34:00,
2013-01-07 09:35:00,21.1,19.1,29.56,South,183,5.0,14.0,92,0.00,,,0.00,WUHU216DAVISVP2,2013-01-07 14:35:00,
2013-01-07 09:36:00,21.1,19.1,29.56,South,190,1.0,14.0,92,0.00,,,0.00,WUHU216DAVISVP2,2013-01-07 14:36:00,
2013-01-07 09:37:00,21.1,19.1,29.56,SSW,192,6.0,14.0,92,0.00,,,0.00,WUHU216DAVISVP2,2013-01-07 14:37:00,
2013-01-07 09:39:00,21.2,19.2,29.56,SW,233,7.0,14.0,92,0.00,,,0.00,WUHU216DAVISVP2,2013-01-07 14:39:00,
2013-01-07 09:40:00,21.3,19.3,29.55,South,174,5.0,14.0,92,0.00,,,0.00,WUHU216DAVISVP2,2013-01-07 14:40:00,
2013-01-07 09:41:00,21.3,19.3,29.55,SSW,209,4.0,14.0,92,0.00,,,0.00,WUHU216DAVISVP2,2013-01-07 14:41:00,
2013-01-07 09:42:00,21.4,19.4,29.55,SW,227,4.0,14.0,92,0.00,,,0.00,WUHU216DAVISVP2,2013-01-07 14:42:00,
2013-01-07 09:45:00,21.4,19.4,29.55,SSW,193,1.0,14.0,92,0.00,,,0.00,WUHU216DAVISVP2,2013-01-07 14:45:00,
2013-01-07 09:46:00,21.4,19.4,29.55,SSW,203,4.0,14.0,92,0.00,,,0.00,WUHU216DAVISVP2,2013-01-07 14:46:00,
2013-01-07 09:47:00,21.4,19.4,29.55,SSW,207,0.0,14.0,92,0.00,,,0.00,WUHU216DAVISVP2,2013-01-07 14:47:00,
2013-01-07 09:50:00,21.4,19.4,29.55,SSW,206,4.0,14.0,92,0.00,,,0.00,WUHU216DAVISVP2,2013-01-07 14:50:00,
2013-01-07 09:51:00,21.4,19.4,29.55,SW,216,0.0,14.0,92,0.00,,,0.00,WUHU216DAVISVP2,2013-01-07 14:51:00,
2013-01-07 09:52:00,21.5,19.5,29.55,South,189,5.0,14.0,92,0.00,,,0.00,WUHU216DAVISVP2,2013-01-07 14:52:00,
2013-01-07 09:55:00,21.5,19.5,29.55,SSW,193,2.0,13.0,92,0.00,,,0.00,WUHU216DAVISVP2,2013-01-07 14:55:00,
2013-01-07 09:56:00,21.5,19.5,29.55,SSW,207,1.0,13.0,92,0.00,,,0.00,WUHU216DAVISVP2,2013-01-07 14:56:00,
2013-01-07 09:57:00,21.5,19.3,29.55,SW,218,1.0,13.0,91,0.00,,,0.00,WUHU216DAVISVP2,2013-01-07 14:57:00,
2013-01-07 10:00:00,21.6,19.4,29.55,SW,230,1.0,10.0,91,0.00,,,0.00,WUHU216DAVISVP2,2013-01-07 15:00:00,
2013-01-07 10:01:00,21.6,19.4,29.55,SW,218,5.0,10.0,91,0.00,,,0.00,WUHU216DAVISVP2,2013-01-07 15:01:00,
2013-01-07 10:02:00,21.6,19.4,29.55,SSE,152,8.0,11.0,91,0.00,,,0.00,WUHU216DAVISVP2,2013-01-07 15:02:00,
2013-01-07 10:03:00,21.6,19.4,29.55,SSW,197,6.0,11.0,91,0.00,,,0.00,WUHU216DAVISVP2,2013-01-07 15:03:00,
2013-01-07 10:05:00,21.7,19.5,29.55,SSW,212,4.0,12.0,91,0.00,,,0.00,WUHU216DAVISVP2,2013-01-07 15:05:00,
2013-01-07 10:06:00,21.7,19.5,29.55,SSW,195,7.0,12.0,91,0.00,,,0.00,WUHU216DAVISVP2,2013-01-07 15:06:00,
2013-01-07 10:08:00,21.7,19.4,29.55,South,191,3.0,12.0,91,0.00,,,0.00,WUHU216DAVISVP2,2013-01-07 15:08:00,
2013-01-07 10:10:00,21.9,19.6,29.55,SSW,193,1.0,12.0,91,0.00,,,0.00,WUHU216DAVISVP2,2013-01-07 15:10:00,
2013-01-07 10:11:00,22.0,19.7,29.55,SSW,193,5.0,12.0,91,0.00,,,0.00,WUHU216DAVISVP2,2013-01-07 15:11:00,
2013-01-07 10:13:00,22.0,19.7,29.55,South,191,5.0,12.0,91,0.00,,,0.00,WUHU216DAVISVP2,2013-01-07 15:13:00,
2013-01-07 10:15:00,22.2,19.9,29.55,SSW,212,0.0,12.0,91,0.00,,,0.00,WUHU216DAVISVP2,2013-01-07 15:15:00,
2013-01-07 10:16:00,22.2,19.9,29.55,SSW,208,1.0,12.0,91,0.00,,,0.00,WUHU216DAVISVP2,2013-01-07 15:16:00,
2013-01-07 10:18:00,22.4,20.1,29.55,South,190,4.0,12.0,91,0.00,,,0.00,WUHU216DAVISVP2,2013-01-07 15:18:00,
2013-01-07 10:20:00,22.5,20.0,29.55,SSW,198,1.0,12.0,90,0.00,,,0.00,WUHU216DAVISVP2,2013-01-07 15:20:00,
2013-01-07 10:21:00,22.6,20.1,29.56,SW,229,3.0,14.0,90,0.00,,,0.00,WUHU216DAVISVP2,2013-01-07 15:21:00,
2013-01-07 10:23:00,22.7,20.2,29.56,SW,230,3.0,14.0,90,0.00,,,0.00,WUHU216DAVISVP2,2013-01-07 15:23:00,
2013-01-07 10:24:00,22.7,20.2,29.56,WSW,238,6.0,14.0,90,0.00,,,0.00,WUHU216DAVISVP2,2013-01-07 15:24:00,
2013-01-07 10:25:00,22.8,20.3,29.55,South,183,4.0,14.0,90,0.00,,,0.00,WUHU216DAVISVP2,2013-01-07 15:25:00,
2013-01-07 10:27:00,22.9,20.4,29.55,SW,220,1.0,14.0,90,0.00,,,0.00,WUHU216DAVISVP2,2013-01-07 15:27:00,
2013-01-07 10:28:00,23.0,20.5,29.56,SW,221,6.0,14.0,90,0.00,,,0.00,WUHU216DAVISVP2,2013-01-07 15:28:00,
2013-01-07 10:29:00,23.2,20.7,29.56,SW,214,0.0,14.0,90,0.00,,,0.00,WUHU216DAVISVP2,2013-01-07 15:29:00,
2013-01-07 10:30:00,23.3,20.8,29.56,WSW,256,7.0,14.0,90,0.00,,,0.00,WUHU216DAVISVP2,2013-01-07 15:30:00,
2013-01-07 10:32:00,23.5,21.0,29.56,WNW,300,3.0,14.0,90,0.00,,,0.00,WUHU216DAVISVP2,2013-01-07 15:32:00,
2013-01-07 10:33:00,23.6,21.1,29.56,SW,220,2.0,14.0,90,0.00,,,0.00,WUHU216DAVISVP2,2013-01-07 15:33:00,
2013-01-07 10:34:00,23.6,21.1,29.56,SSW,213,0.0,14.0,90,0.00,,,0.00,WUHU216DAVISVP2,2013-01-07 15:34:00,
2013-01-07 10:35:00,23.8,21.0,29.56,South,191,6.0,14.0,89,0.00,,,0.00,WUHU216DAVISVP2,2013-01-07 15:35:00,
2013-01-07 10:37:00,23.9,21.1,29.56,SW,226,3.0,14.0,89,0.00,,,0.00,WUHU216DAVISVP2,2013-01-07 15:37:00,
2013-01-07 10:38:00,24.0,21.2,29.56,SW,224,5.0,14.0,89,0.00,,,0.00,WUHU216DAVISVP2,2013-01-07 15:38:00,
2013-01-07 10:39:00,24.0,21.2,29.56,WSW,245,5.0,14.0,89,0.00,,,0.00,WUHU216DAVISVP2,2013-01-07 15:39:00,
2013-01-07 10:40:00,24.2,21.4,29.56,South,189,6.0,14.0,89,0.00,,,0.00,WUHU216DAVISVP2,2013-01-07 15:40:00,
2013-01-07 10:43:00,24.4,21.6,29.56,WSW,243,12.0,14.0,89,0.00,,,0.00,WUHU216DAVISVP2,2013-01-07 15:43:00,
2013-01-07 10:44:00,24.5,21.4,29.56,SSW,208,2.0,14.0,88,0.00,,,0.00,WUHU216DAVISVP2,2013-01-07 15:44:00,
2013-01-07 10:45:00,24.7,21.6,29.56,SSW,196,5.0,14.0,88,0.00,,,0.00,WUHU216DAVISVP2,2013-01-07 15:45:00,
2013-01-07 10:48:00,24.9,21.8,29.56,SW,220,13.0,14.0,88,0.00,,,0.00,WUHU216DAVISVP2,2013-01-07 15:48:00,
2013-01-07 10:49:00,24.9,21.8,29.57,SW,230,7.0,15.0,88,0.00,,,0.00,WUHU216DAVISVP2,2013-01-07 15:49:00,
2013-01-07 10:50:00,25.0,21.9,29.56,SSW,209,1.0,15.0,88,0.00,,,0.00,WUHU216DAVISVP2,2013-01-07 15:50:00,
2013-01-07 10:53:00,25.0,21.6,29.56,South,185,1.0,15.0,87,0.00,,,0.00,WUHU216DAVISVP2,2013-01-07 15:53:00,
2013-01-07 10:54:00,25.1,21.7,29.56,SSW,201,5.0,15.0,87,0.00,,,0.00,WUHU216DAVISVP2,2013-01-07 15:54:00,
2013-01-07 10:55:00,25.1,21.7,29.56,SSW,198,4.0,15.0,87,0.00,,,0.00,WUHU216DAVISVP2,2013-01-07 15:55:00,
2013-01-07 10:58:00,25.2,21.8,29.56,SW,226,2.0,15.0,87,0.00,,,0.00,WUHU216DAVISVP2,2013-01-07 15:58:00,
2013-01-07 10:59:00,25.2,21.8,29.56,SW,216,5.0,15.0,87,0.00,,,0.00,WUHU216DAVISVP2,2013-01-07 15:59:00,
2013-01-07 11:01:00,25.4,22.1,29.56,SSW,206,2.0,15.0,87,0.00,,,0.00,WUHU216DAVISVP2,2013-01-07 16:01:00,
2013-01-07 11:03:00,25.5,22.2,29.56,WSW,245,12.0,15.0,87,0.00,,,0.00,WUHU216DAVISVP2,2013-01-07 16:03:00,
2013-01-07 11:04:00,25.5,22.2,29.56,South,187,5.0,15.0,87,0.00,,,0.00,WUHU216DAVISVP2,2013-01-07 16:04:00,
2013-01-07 11:05:00,25.6,22.0,29.56,SW,218,7.0,15.0,86,0.00,,,0.00,WUHU216DAVISVP2,2013-01-07 16:05:00,
2013-01-07 11:08:00,25.9,22.3,29.56,WSW,244,8.0,15.0,86,0.00,,,0.00,WUHU216DAVISVP2,2013-01-07 16:08:00,
2013-01-07 11:09:00,25.9,22.3,29.56,WSW,238,13.0,19.0,86,0.00,,,0.00,WUHU216DAVISVP2,2013-01-07 16:09:00,
2013-01-07 11:11:00,25.9,22.3,29.56,WSW,246,6.0,19.0,86,0.00,,,0.00,WUHU216DAVISVP2,2013-01-07 16:11:00,
2013-01-07 11:14:00,26.1,22.5,29.56,SSW,210,1.0,19.0,86,0.00,,,0.00,WUHU216DAVISVP2,2013-01-07 16:14:00,
2013-01-07 11:16:00,26.3,22.6,29.56,SW,227,0.0,19.0,86,0.00,,,0.00,WUHU216DAVISVP2,2013-01-07 16:16:00,
2013-01-07 11:19:00,26.5,22.6,29.56,SSW,200,2.0,19.0,85,0.00,,,0.00,WUHU216DAVISVP2,2013-01-07 16:19:00,
2013-01-07 11:21:00,26.6,22.7,29.55,WSW,246,11.0,19.0,85,0.00,,,0.00,WUHU216DAVISVP2,2013-01-07 16:21:00,
2013-01-07 11:24:00,26.8,22.9,29.55,SSW,193,2.0,19.0,85,0.00,,,0.00,WUHU216DAVISVP2,2013-01-07 16:24:00,
2013-01-07 11:26:00,26.7,22.5,29.55,SW,236,5.0,19.0,84,0.00,,,0.00,WUHU216DAVISVP2,2013-01-07 16:26:00,
2013-01-07 11:29:00,26.6,22.4,29.55,SSW,195,9.0,19.0,84,0.00,,,0.00,WUHU216DAVISVP2,2013-01-07 16:29:00,
2013-01-07 11:30:00,26.6,22.4,29.55,SSW,204,4.0,19.0,84,0.00,,,0.00,WUHU216DAVISVP2,2013-01-07 16:30:00,
2013-01-07 11:32:00,26.7,22.5,29.55,SW,222,1.0,22.0,84,0.00,,,0.00,WUHU216DAVISVP2,2013-01-07 16:32:00,
2013-01-07 11:34:00,26.9,22.7,29.55,WSW,249,16.0,22.0,84,0.00,,,0.00,WUHU216DAVISVP2,2013-01-07 16:34:00,
2013-01-07 11:35:00,26.9,22.7,29.55,SW,231,8.0,22.0,84,0.00,,,0.00,WUHU216DAVISVP2,2013-01-07 16:35:00,
2013-01-07 11:37:00,27.2,23.0,29.55,WSW,249,11.0,22.0,84,0.00,,,0.00,WUHU216DAVISVP2,2013-01-07 16:37:00,
2013-01-07 11:39:00,27.3,22.8,29.55,SSW,199,10.0,22.0,83,0.00,,,0.00,WUHU216DAVISVP2,2013-01-07 16:39:00,
2013-01-07 11:40:00,27.2,22.7,29.55,SW,220,5.0,22.0,83,0.00,,,0.00,WUHU216DAVISVP2,2013-01-07 16:40:00,
2013-01-07 11:42:00,27.3,22.8,29.55,SW,220,5.0,22.0,83,0.00,,,0.00,WUHU216DAVISVP2,2013-01-07 16:42:00,
2013-01-07 11:44:00,27.4,22.9,29.54,SW,222,10.0,22.0,83,0.00,,,0.00,WUHU216DAVISVP2,2013-01-07 16:44:00,
2013-01-07 11:45:00,27.4,22.9,29.54,SW,217,9.0,22.0,83,0.00,,,0.00,WUHU216DAVISVP2,2013-01-07 16:45:00,
2013-01-07 11:46:00,27.5,23.0,29.54,SW,226,4.0,22.0,83,0.00,,,0.00,WUHU216DAVISVP2,2013-01-07 16:46:00,
2013-01-07 11:47:00,27.6,24.7,29.54,South,188,10.0,22.0,89,0.00,,,0.00,WUHU216DAVISVP2,2013-01-07 16:47:00,
2013-01-07 11:50:00,27.9,23.1,29.53,SW,228,8.0,22.0,82,0.00,,,0.00,WUHU216DAVISVP2,2013-01-07 16:50:00,
2013-01-07 11:51:00,28.0,23.2,29.53,South,189,7.0,22.0,82,0.00,,,0.00,WUHU216DAVISVP2,2013-01-07 16:51:00,
2013-01-07 11:52:00,28.1,23.3,29.53,SW,217,2.0,22.0,82,0.00,,,0.00,WUHU216DAVISVP2,2013-01-07 16:52:00,
2013-01-07 11:55:00,28.1,23.3,29.53,WSW,247,12.0,22.0,82,0.00,,,0.00,WUHU216DAVISVP2,2013-01-07 16:55:00,
2013-01-07 11:56:00,28.1,23.0,29.53,SSW,194,6.0,22.0,81,0.00,,,0.00,WUHU216DAVISVP2,2013-01-07 16:56:00,
2013-01-07 11:57:00,28.1,23.0,29.53,WSW,240,8.0,22.0,81,0.00,,,0.00,WUHU216DAVISVP2,2013-01-07 16:57:00,
2013-01-07 12:00:00,28.0,22.9,29.53,SW,214,1.0,22.0,81,0.00,,,0.00,WUHU216DAVISVP2,2013-01-07 17:00:00,
2013-01-07 12:01:00,28.0,22.9,29.53,South,191,6.0,22.0,81,0.00,,,0.00,WUHU216DAVISVP2,2013-01-07 17:01:00,
2013-01-07 12:02:00,28.1,23.0,29.53,SSW,206,5.0,22.0,81,0.00,,,0.00,WUHU216DAVISVP2,2013-01-07 17:02:00,
2013-01-07 12:05:00,28.3,23.5,29.52,SSW,210,6.0,22.0,82,0.00,,,0.00,WUHU216DAVISVP2,2013-01-07 17:05:00,
2013-01-07 12:06:00,28.4,23.3,29.52,SW,234,8.0,22.0,81,0.00,,,0.00,WUHU216DAVISVP2,2013-01-07 17:06:00,
2013-01-07 12:08:00,28.4,23.3,29.52,SSW,206,2.0,20.0,81,0.00,,,0.00,WUHU216DAVISVP2,2013-01-07 17:08:00,
2013-01-07 12:10:00,28.3,23.2,29.51,South,183,11.0,20.0,81,0.00,,,0.00,WUHU216DAVISVP2,2013-01-07 17:10:00,
2013-01-07 12:11:00,28.3,23.2,29.51,SW,235,5.0,20.0,81,0.00,,,0.00,WUHU216DAVISVP2,2013-01-07 17:11:00,
2013-01-07 12:13:00,28.4,23.3,29.51,SW,235,14.0,20.0,81,0.00,,,0.00,WUHU216DAVISVP2,2013-01-07 17:13:00,
2013-01-07 12:15:00,28.6,23.5,29.51,SSW,202,2.0,22.0,81,0.00,,,0.00,WUHU216DAVISVP2,2013-01-07 17:15:00,
2013-01-07 12:17:00,28.7,23.6,29.51,WSW,239,7.0,22.0,81,0.00,,,0.00,WUHU216DAVISVP2,2013-01-07 17:17:00,
2013-01-07 12:18:00,28.9,23.5,29.51,WSW,241,7.0,22.0,80,0.00,,,0.00,WUHU216DAVISVP2,2013-01-07 17:18:00,
2013-01-07 12:20:00,29.1,24.0,29.50,SSW,197,4.0,22.0,81,0.00,,,0.00,WUHU216DAVISVP2,2013-01-07 17:20:00,
2013-01-07 12:22:00,29.2,23.8,29.50,SW,228,1.0,22.0,80,0.00,,,0.00,WUHU216DAVISVP2,2013-01-07 17:22:00,
2013-01-07 12:23:00,29.2,23.8,29.50,SW,231,13.0,22.0,80,0.00,,,0.00,WUHU216DAVISVP2,2013-01-07 17:23:00,
2013-01-07 12:25:00,29.2,23.5,29.50,SSW,210,5.0,27.0,79,0.00,,,0.00,WUHU216DAVISVP2,2013-01-07 17:25:00,
2013-01-07 12:26:00,29.2,23.5,29.50,SSW,193,7.0,27.0,79,0.00,,,0.00,WUHU216DAVISVP2,2013-01-07 17:26:00,
2013-01-07 12:27:00,29.3,23.6,29.50,SW,228,1.0,27.0,79,0.00,,,0.00,WUHU216DAVISVP2,2013-01-07 17:27:00,
2013-01-07 12:28:00,29.4,24.0,29.51,SW,221,12.0,27.0,80,0.00,,,0.00,WUHU216DAVISVP2,2013-01-07 17:28:00,
2013-01-07 12:30:00,29.5,23.8,29.50,SW,231,9.0,27.0,79,0.00,,,0.00,WUHU216DAVISVP2,2013-01-07 17:30:00,
2013-01-07 12:31:00,29.5,23.8,29.50,SW,231,9.0,27.0,79,0.00,,,0.00,WUHU216DAVISVP2,2013-01-07 17:31:00,
2013-01-07 12:32:00,29.6,23.9,29.50,WSW,238,16.0,27.0,79,0.00,,,0.00,WUHU216DAVISVP2,2013-01-07 17:32:00,
2013-01-07 12:33:00,29.7,24.0,29.50,WSW,237,7.0,27.0,79,0.00,,,0.00,WUHU216DAVISVP2,2013-01-07 17:33:00,
2013-01-07 12:36:00,29.9,24.2,29.49,South,185,10.0,27.0,79,0.00,,,0.00,WUHU216DAVISVP2,2013-01-07 17:36:00,
2013-01-07 12:37:00,30.0,24.3,29.49,SW,233,9.0,27.0,79,0.00,,,0.00,WUHU216DAVISVP2,2013-01-07 17:37:00,
2013-01-07 12:39:00,30.1,24.4,29.49,SW,216,2.0,27.0,79,0.00,,,0.00,WUHU216DAVISVP2,2013-01-07 17:39:00,
2013-01-07 12:41:00,30.2,24.5,29.49,WSW,238,15.0,27.0,79,0.00,,,0.00,WUHU216DAVISVP2,2013-01-07 17:41:00,
2013-01-07 12:42:00,30.3,24.6,29.49,SSW,203,4.0,27.0,79,0.00,,,0.00,WUHU216DAVISVP2,2013-01-07 17:42:00,
2013-01-07 12:44:00,30.3,24.3,29.49,WSW,239,18.0,25.0,78,0.00,,,0.00,WUHU216DAVISVP2,2013-01-07 17:44:00,
2013-01-07 12:46:00,30.4,24.4,29.49,WSW,247,6.0,25.0,78,0.00,,,0.00,WUHU216DAVISVP2,2013-01-07 17:46:00,
2013-01-07 12:47:00,30.5,24.5,29.48,SW,216,6.0,25.0,78,0.00,,,0.00,WUHU216DAVISVP2,2013-01-07 17:47:00,
2013-01-07 12:49:00,30.6,24.6,29.48,SSW,193,13.0,25.0,78,0.00,,,0.00,WUHU216DAVISVP2,2013-01-07 17:49:00,
2013-01-07 12:51:00,30.7,24.7,29.48,WSW,247,14.0,25.0,78,0.00,,,0.00,WUHU216DAVISVP2,2013-01-07 17:51:00,
2013-01-07 12:52:00,30.7,24.7,29.48,WSW,241,10.0,27.0,78,0.00,,,0.00,WUHU216DAVISVP2,2013-01-07 17:52:00,
2013-01-07 12:54:00,30.8,24.8,29.48,WSW,256,11.0,27.0,78,0.00,,,0.00,WUHU216DAVISVP2,2013-01-07 17:54:00,
2013-01-07 12:56:00,30.8,24.8,29.48,SW,220,2.0,27.0,78,0.00,,,0.00,WUHU216DAVISVP2,2013-01-07 17:56:00,
2013-01-07 12:58:00,31.0,25.0,29.48,South,183,9.0,27.0,78,0.00,,,0.00,WUHU216DAVISVP2,2013-01-07 17:58:00,
2013-01-07 12:59:00,31.1,24.8,29.48,WSW,248,11.0,27.0,77,0.00,,,0.00,WUHU216DAVISVP2,2013-01-07 17:59:00,
2013-01-07 13:01:00,31.1,24.8,29.48,SSW,195,6.0,27.0,77,0.00,,,0.00,WUHU216DAVISVP2,2013-01-07 18:01:00,
2013-01-07 13:03:00,31.1,24.8,29.48,WSW,248,16.0,27.0,77,0.00,,,0.00,WUHU216DAVISVP2,2013-01-07 18:03:00,
2013-01-07 13:04:00,31.2,24.9,29.48,SW,222,9.0,27.0,77,0.00,,,0.00,WUHU216DAVISVP2,2013-01-07 18:04:00,
2013-01-07 13:06:00,31.4,25.1,29.48,SSW,210,6.0,27.0,77,0.00,,,0.00,WUHU216DAVISVP2,2013-01-07 18:06:00,
2013-01-07 13:08:00,31.5,25.1,29.48,WSW,239,6.0,27.0,77,0.00,,,0.00,WUHU216DAVISVP2,2013-01-07 18:08:00,
2013-01-07 13:10:00,31.6,25.2,29.48,SW,231,9.0,27.0,77,0.00,,,0.00,WUHU216DAVISVP2,2013-01-07 18:10:00,
2013-01-07 13:11:00,31.6,24.9,29.47,South,181,9.0,23.0,76,0.00,,,0.00,WUHU216DAVISVP2,2013-01-07 18:11:00,
2013-01-07 13:13:00,31.6,25.2,29.47,South,184,5.0,23.0,77,0.00,,,0.00,WUHU216DAVISVP2,2013-01-07 18:13:00,
2013-01-07 13:15:00,31.6,24.9,29.47,SSW,198,7.0,23.0,76,0.00,,,0.00,WUHU216DAVISVP2,2013-01-07 18:15:00,
2013-01-07 13:16:00,31.5,24.8,29.47,WSW,243,4.0,25.0,76,0.00,,,0.00,WUHU216DAVISVP2,2013-01-07 18:16:00,
2013-01-07 13:18:00,31.5,24.8,29.47,SSW,193,9.0,25.0,76,0.00,,,0.00,WUHU216DAVISVP2,2013-01-07 18:18:00,
2013-01-07 13:20:00,31.6,25.2,29.47,SW,233,6.0,25.0,77,0.00,,,0.00,WUHU216DAVISVP2,2013-01-07 18:20:00,
2013-01-07 13:21:00,31.7,25.3,29.47,SW,230,6.0,25.0,77,0.00,,,0.00,WUHU216DAVISVP2,2013-01-07 18:21:00,
2013-01-07 13:22:00,31.7,25.3,29.47,WSW,245,13.0,25.0,77,0.00,,,0.00,WUHU216DAVISVP2,2013-01-07 18:22:00,
2013-01-07 13:23:00,31.7,25.0,29.47,South,185,14.0,25.0,76,0.00,,,0.00,WUHU216DAVISVP2,2013-01-07 18:23:00,
2013-01-07 13:25:00,31.7,25.0,29.47,WSW,243,22.0,25.0,76,0.00,,,0.00,WUHU216DAVISVP2,2013-01-07 18:25:00,
2013-01-07 13:26:00,31.7,25.0,29.47,WSW,246,14.0,25.0,76,0.00,,,0.00,WUHU216DAVISVP2,2013-01-07 18:26:00,
2013-01-07 13:27:00,31.7,25.0,29.47,SW,230,14.0,25.0,76,0.00,,,0.00,WUHU216DAVISVP2,2013-01-07 18:27:00,
2013-01-07 13:28:00,31.8,25.1,29.46,WSW,241,13.0,25.0,76,0.00,,,0.00,WUHU216DAVISVP2,2013-01-07 18:28:00,
2013-01-07 13:30:00,31.7,25.0,29.46,South,190,11.0,25.0,76,0.00,,,0.00,WUHU216DAVISVP2,2013-01-07 18:30:00,
2013-01-07 13:31:00,31.6,24.9,29.46,SW,232,11.0,25.0,76,0.00,,,0.00,WUHU216DAVISVP2,2013-01-07 18:31:00,
2013-01-07 13:32:00,31.6,24.9,29.46,SSW,207,5.0,25.0,76,0.00,,,0.00,WUHU216DAVISVP2,2013-01-07 18:32:00,
2013-01-07 13:33:00,31.7,25.3,29.46,South,187,15.0,25.0,77,0.00,,,0.00,WUHU216DAVISVP2,2013-01-07 18:33:00,
2013-01-07 13:35:00,32.0,25.3,29.46,SW,222,1.0,25.0,76,0.00,,,0.00,WUHU216DAVISVP2,2013-01-07 18:35:00,
2013-01-07 13:37:00,32.0,25.3,29.46,SW,221,2.0,25.0,76,0.00,,,0.00,WUHU216DAVISVP2,2013-01-07 18:37:00,
2013-01-07 13:38:00,32.0,25.3,29.46,WSW,247,2.0,25.0,76,0.00,,,0.00,WUHU216DAVISVP2,2013-01-07 18:38:00,
2013-01-07 13:41:00,32.0,25.3,29.46,SSW,212,12.0,26.0,76,0.00,,,0.00,WUHU216DAVISVP2,2013-01-07 18:41:00,
2013-01-07 13:42:00,32.1,25.7,29.46,WSW,247,31.0,31.0,77,0.00,,,0.00,WUHU216DAVISVP2,2013-01-07 18:42:00,
2013-01-07 13:44:00,32.1,25.7,29.45,SSW,193,8.0,31.0,77,0.00,,,0.00,WUHU216DAVISVP2,2013-01-07 18:44:00,
2013-01-07 13:45:00,32.2,25.8,29.45,SSW,204,0.0,31.0,77,0.00,,,0.00,WUHU216DAVISVP2,2013-01-07 18:45:00,
2013-01-07 13:47:00,32.2,25.5,29.45,SW,224,9.0,31.0,76,0.00,,,0.00,WUHU216DAVISVP2,2013-01-07 18:47:00,
2013-01-07 13:49:00,32.3,25.9,29.45,SSW,208,5.0,31.0,77,0.00,,,0.00,WUHU216DAVISVP2,2013-01-07 18:49:00,
2013-01-07 13:51:00,32.2,25.5,29.45,South,189,4.0,31.0,76,0.00,,,0.00,WUHU216DAVISVP2,2013-01-07 18:51:00,
2013-01-07 13:52:00,32.1,25.4,29.46,WSW,237,6.0,31.0,76,0.00,,,0.00,WUHU216DAVISVP2,2013-01-07 18:52:00,
2013-01-07 13:54:00,32.1,25.7,29.46,WSW,241,14.0,31.0,77,0.00,,,0.00,WUHU216DAVISVP2,2013-01-07 18:54:00,
2013-01-07 13:56:00,32.2,25.8,29.45,SSW,200,8.0,31.0,77,0.00,,,0.00,WUHU216DAVISVP2,2013-01-07 18:56:00,
2013-01-07 13:57:00,32.2,25.8,29.45,SW,233,11.0,31.0,77,0.00,,,0.00,WUHU216DAVISVP2,2013-01-07 18:57:00,
2013-01-07 13:59:00,32.4,26.0,29.45,SSW,196,6.0,31.0,77,0.00,,,0.00,WUHU216DAVISVP2,2013-01-07 18:59:00,
2013-01-07 14:01:00,32.6,26.2,29.45,SW,214,11.0,23.0,77,0.00,,,0.00,WUHU216DAVISVP2,2013-01-07 19:01:00,
2013-01-07 14:02:00,32.5,25.8,29.45,SSW,195,12.0,23.0,76,0.00,,,0.00,WUHU216DAVISVP2,2013-01-07 19:02:00,
2013-01-07 14:04:00,32.5,25.8,29.45,WSW,245,12.0,23.0,76,0.00,,,0.00,WUHU216DAVISVP2,2013-01-07 19:04:00,
2013-01-07 14:07:00,32.5,25.8,29.45,SSW,203,6.0,25.0,76,0.00,,,0.00,WUHU216DAVISVP2,2013-01-07 19:07:00,
2013-01-07 14:08:00,32.4,26.0,29.45,SW,217,7.0,25.0,77,0.00,,,0.00,WUHU216DAVISVP2,2013-01-07 19:08:00,
2013-01-07 14:09:00,32.3,25.9,29.45,SSW,193,5.0,25.0,77,0.00,,,0.00,WUHU216DAVISVP2,2013-01-07 19:09:00,
2013-01-07 14:12:00,32.4,26.0,29.45,WSW,237,21.0,25.0,77,0.00,,,0.00,WUHU216DAVISVP2,2013-01-07 19:12:00,
2013-01-07 14:13:00,32.5,26.1,29.45,SW,216,2.0,25.0,77,0.00,,,0.00,WUHU216DAVISVP2,2013-01-07 19:13:00,
2013-01-07 14:15:00,32.6,26.2,29.45,WSW,251,14.0,25.0,77,0.00,,,0.00,WUHU216DAVISVP2,2013-01-07 19:15:00,
2013-01-07 14:17:00,32.6,26.2,29.45,SSW,193,14.0,25.0,77,0.00,,,0.00,WUHU216DAVISVP2,2013-01-07 19:17:00,
2013-01-07 14:18:00,32.6,26.2,29.45,WSW,243,14.0,25.0,77,0.00,,,0.00,WUHU216DAVISVP2,2013-01-07 19:18:00,
2013-01-07 14:20:00,32.6,26.2,29.44,SSW,213,10.0,25.0,77,0.00,,,0.00,WUHU216DAVISVP2,2013-01-07 19:20:00,
2013-01-07 14:22:00,32.6,26.2,29.44,SW,214,6.0,29.0,77,0.00,,,0.00,WUHU216DAVISVP2,2013-01-07 19:22:00,
2013-01-07 14:23:00,32.5,26.1,29.44,NNE,22,22.0,29.0,77,0.00,,,0.00,WUHU216DAVISVP2,2013-01-07 19:23:00,
2013-01-07 14:25:00,32.5,26.1,29.44,NW,315,14.0,29.0,77,0.00,,,0.00,WUHU216DAVISVP2,2013-01-07 19:25:00,
2013-01-07 14:28:00,32.6,26.2,29.44,SW,233,20.0,29.0,77,0.00,,,0.00,WUHU216DAVISVP2,2013-01-07 19:28:00,
2013-01-07 14:30:00,32.8,26.4,29.43,WSW,244,13.0,29.0,77,0.00,,,0.00,WUHU216DAVISVP2,2013-01-07 19:30:00,
2013-01-07 14:33:00,32.8,26.4,29.43,South,188,12.0,29.0,77,0.00,,,0.00,WUHU216DAVISVP2,2013-01-07 19:33:00,
2013-01-07 14:35:00,32.9,26.5,29.43,SW,230,15.0,29.0,77,0.00,,,0.00,WUHU216DAVISVP2,2013-01-07 19:35:00,
2013-01-07 14:38:00,33.0,26.6,29.43,SW,224,7.0,29.0,77,0.00,,,0.00,WUHU216DAVISVP2,2013-01-07 19:38:00,
2013-01-07 14:40:00,33.1,26.7,29.43,SSW,194,7.0,29.0,77,0.00,,,0.00,WUHU216DAVISVP2,2013-01-07 19:40:00,
2013-01-07 14:43:00,33.3,26.9,29.43,WSW,238,11.0,25.0,77,0.00,,,0.00,WUHU216DAVISVP2,2013-01-07 19:43:00,
2013-01-07 14:45:00,33.4,27.0,29.43,SSW,195,5.0,22.0,77,0.00,,,0.00,WUHU216DAVISVP2,2013-01-07 19:45:00,
2013-01-07 14:48:00,33.7,27.0,29.43,SW,225,6.0,22.0,76,0.00,,,0.00,WUHU216DAVISVP2,2013-01-07 19:48:00,
2013-01-07 14:50:00,33.9,27.2,29.43,SW,232,8.0,22.0,76,0.00,,,0.00,WUHU216DAVISVP2,2013-01-07 19:50:00,
2013-01-07 14:53:00,33.9,27.2,29.43,SW,218,6.0,19.0,76,0.00,,,0.00,WUHU216DAVISVP2,2013-01-07 19:53:00,
2013-01-07 14:55:00,33.9,27.2,29.42,South,188,6.0,20.0,76,0.00,,,0.00,WUHU216DAVISVP2,2013-01-07 19:55:00,
2013-01-07 14:58:00,33.9,27.2,29.43,WSW,244,15.0,20.0,76,0.00,,,0.00,WUHU216DAVISVP2,2013-01-07 19:58:00,
2013-01-07 14:59:00,33.9,27.2,29.43,SSW,193,4.0,20.0,76,0.00,,,0.00,WUHU216DAVISVP2,2013-01-07 19:59:00,
2013-01-07 15:00:00,33.9,27.2,29.43,SW,235,2.0,20.0,76,0.00,,,0.00,WUHU216DAVISVP2,2013-01-07 20:00:00,
2013-01-07 15:03:00,33.8,27.1,29.43,South,187,12.0,20.0,76,0.00,,,0.00,WUHU216DAVISVP2,2013-01-07 20:03:00,
2013-01-07 15:04:00,33.8,27.1,29.43,SW,231,10.0,20.0,76,0.00,,,0.00,WUHU216DAVISVP2,2013-01-07 20:04:00,
2013-01-07 15:05:00,33.8,28.6,29.42,SW,217,5.0,20.0,81,0.00,,,0.00,WUHU216DAVISVP2,2013-01-07 20:05:00,
2013-01-07 15:08:00,33.9,27.2,29.42,South,189,7.0,20.0,76,0.00,,,0.00,WUHU216DAVISVP2,2013-01-07 20:08:00,
2013-01-07 15:09:00,33.9,26.9,29.42,South,189,14.0,20.0,75,0.00,,,0.00,WUHU216DAVISVP2,2013-01-07 20:09:00,
2013-01-07 15:10:00,33.9,26.9,29.42,WSW,245,10.0,20.0,75,0.00,,,0.00,WUHU216DAVISVP2,2013-01-07 20:10:00,
2013-01-07 15:14:00,34.0,27.3,29.43,South,185,5.0,20.0,76,0.00,,,0.00,WUHU216DAVISVP2,2013-01-07 20:14:00,
2013-01-07 15:15:00,34.0,27.0,29.42,SSW,203,10.0,20.0,75,0.00,,,0.00,WUHU216DAVISVP2,2013-01-07 20:15:00,
2013-01-07 15:19:00,34.0,27.3,29.43,SW,228,6.0,20.0,76,0.00,,,0.00,WUHU216DAVISVP2,2013-01-07 20:19:00,
2013-01-07 15:20:00,34.1,27.4,29.42,SSW,212,1.0,20.0,76,0.00,,,0.00,WUHU216DAVISVP2,2013-01-07 20:20:00,
2013-01-07 15:24:00,34.3,27.6,29.42,SSE,158,8.0,18.0,76,0.00,,,0.00,WUHU216DAVISVP2,2013-01-07 20:24:00,
2013-01-07 15:25:00,34.3,27.2,29.42,SSW,195,1.0,18.0,75,0.00,,,0.00,WUHU216DAVISVP2,2013-01-07 20:25:00,
2013-01-07 15:29:00,34.3,27.2,29.42,SSW,198,2.0,18.0,75,0.00,,,0.00,WUHU216DAVISVP2,2013-01-07 20:29:00,
2013-01-07 15:31:00,34.2,27.1,29.41,SSW,204,8.0,21.0,75,0.00,,,0.00,WUHU216DAVISVP2,2013-01-07 20:31:00,
2013-01-07 15:34:00,34.0,26.9,29.42,SSW,209,4.0,21.0,75,0.00,,,0.00,WUHU216DAVISVP2,2013-01-07 20:34:00,
2013-01-07 15:35:00,34.0,27.0,29.42,South,191,5.0,21.0,75,0.00,,,0.00,WUHU216DAVISVP2,2013-01-07 20:35:00,
2013-01-07 15:36:00,33.9,27.2,29.42,SW,235,6.0,21.0,76,0.00,,,0.00,WUHU216DAVISVP2,2013-01-07 20:36:00,
2013-01-07 15:39:00,33.9,27.2,29.42,South,181,13.0,21.0,76,0.00,,,0.00,WUHU216DAVISVP2,2013-01-07 20:39:00,
2013-01-07 15:40:00,33.9,27.2,29.42,SSW,213,15.0,21.0,76,0.00,,,0.00,WUHU216DAVISVP2,2013-01-07 20:40:00,
2013-01-07 15:41:00,33.9,27.2,29.42,South,178,2.0,21.0,76,0.00,,,0.00,WUHU216DAVISVP2,2013-01-07 20:41:00,
2013-01-07 15:44:00,33.9,27.2,29.42,SW,223,4.0,21.0,76,0.00,,,0.00,WUHU216DAVISVP2,2013-01-07 20:44:00,
2013-01-07 15:45:00,34.0,27.3,29.42,SSW,210,3.0,21.0,76,0.00,,,0.00,WUHU216DAVISVP2,2013-01-07 20:45:00,
2013-01-07 15:46:00,34.0,27.3,29.42,SW,214,7.0,21.0,76,0.00,,,0.00,WUHU216DAVISVP2,2013-01-07 20:46:00,
2013-01-07 15:49:00,34.0,27.3,29.42,SSW,200,7.0,21.0,76,0.00,,,0.00,WUHU216DAVISVP2,2013-01-07 20:49:00,
2013-01-07 15:50:00,33.9,27.2,29.42,SSW,211,8.0,19.0,76,0.00,,,0.00,WUHU216DAVISVP2,2013-01-07 20:50:00,
2013-01-07 15:51:00,33.9,26.9,29.42,WSW,243,5.0,19.0,75,0.00,,,0.00,WUHU216DAVISVP2,2013-01-07 20:51:00,
2013-01-07 15:54:00,33.9,27.2,29.42,SSW,195,5.0,19.0,76,0.00,,,0.00,WUHU216DAVISVP2,2013-01-07 20:54:00,
2013-01-07 15:55:00,33.9,27.2,29.42,SSW,206,4.0,19.0,76,0.00,,,0.00,WUHU216DAVISVP2,2013-01-07 20:55:00,
2013-01-07 15:57:00,33.9,27.2,29.42,SSW,193,6.0,19.0,76,0.00,,,0.00,WUHU216DAVISVP2,2013-01-07 20:57:00,
2013-01-07 15:59:00,33.9,27.2,29.42,South,185,10.0,19.0,76,0.00,,,0.00,WUHU216DAVISVP2,2013-01-07 20:59:00,
2013-01-07 16:00:00,33.9,27.2,29.42,SW,226,6.0,19.0,76,0.00,,,0.00,WUHU216DAVISVP2,2013-01-07 21:00:00,
2013-01-07 16:02:00,34.0,27.3,29.42,South,187,5.0,19.0,76,0.00,,,0.00,WUHU216DAVISVP2,2013-01-07 21:02:00,
2013-01-07 16:04:00,33.9,27.2,29.42,SW,228,1.0,19.0,76,0.00,,,0.00,WUHU216DAVISVP2,2013-01-07 21:04:00,
2013-01-07 16:05:00,33.9,27.2,29.42,SSW,196,0.0,19.0,76,0.00,,,0.00,WUHU216DAVISVP2,2013-01-07 21:05:00,
2013-01-07 16:06:00,33.9,27.2,29.42,SSW,195,6.0,18.0,76,0.00,,,0.00,WUHU216DAVISVP2,2013-01-07 21:06:00,
2013-01-07 16:07:00,33.9,27.2,29.42,South,186,11.0,18.0,76,0.00,,,0.00,WUHU216DAVISVP2,2013-01-07 21:07:00,
2013-01-07 16:10:00,33.8,27.1,29.42,SSW,199,3.0,18.0,76,0.00,,,0.00,WUHU216DAVISVP2,2013-01-07 21:10:00,
2013-01-07 16:11:00,33.8,27.1,29.42,SSW,212,5.0,18.0,76,0.00,,,0.00,WUHU216DAVISVP2,2013-01-07 21:11:00,
2013-01-07 16:12:00,33.8,27.1,29.41,SSW,206,5.0,18.0,76,0.00,,,0.00,WUHU216DAVISVP2,2013-01-07 21:12:00,
2013-01-07 16:14:00,33.8,27.1,29.41,WSW,244,13.0,18.0,76,0.00,,,0.00,WUHU216DAVISVP2,2013-01-07 21:14:00,
2013-01-07 16:15:00,33.8,27.1,29.41,SSW,197,7.0,18.0,76,0.00,,,0.00,WUHU216DAVISVP2,2013-01-07 21:15:00,
2013-01-07 16:16:00,33.8,27.1,29.41,South,187,6.0,18.0,76,0.00,,,0.00,WUHU216DAVISVP2,2013-01-07 21:16:00,
2013-01-07 16:17:00,33.8,27.1,29.42,SW,219,2.0,18.0,76,0.00,,,0.00,WUHU216DAVISVP2,2013-01-07 21:17:00,
2013-01-07 16:20:00,33.7,27.0,29.42,SW,215,6.0,18.0,76,0.00,,,0.00,WUHU216DAVISVP2,2013-01-07 21:20:00,
2013-01-07 16:21:00,33.7,27.0,29.42,South,179,7.0,18.0,76,0.00,,,0.00,WUHU216DAVISVP2,2013-01-07 21:21:00,
2013-01-07 16:22:00,33.7,27.0,29.42,SSW,213,5.0,18.0,76,0.00,,,0.00,WUHU216DAVISVP2,2013-01-07 21:22:00,
2013-01-07 16:25:00,33.6,26.9,29.42,SW,214,9.0,18.0,76,0.00,,,0.00,WUHU216DAVISVP2,2013-01-07 21:25:00,
2013-01-07 16:26:00,33.7,27.0,29.42,SSW,193,2.0,18.0,76,0.00,,,0.00,WUHU216DAVISVP2,2013-01-07 21:26:00,
2013-01-07 16:27:00,33.7,27.0,29.42,SSW,197,1.0,18.0,76,0.00,,,0.00,WUHU216DAVISVP2,2013-01-07 21:27:00,
2013-01-07 16:30:00,33.7,27.0,29.42,SW,227,5.0,18.0,76,0.00,,,0.00,WUHU216DAVISVP2,2013-01-07 21:30:00,
2013-01-07 16:31:00,33.7,27.0,29.42,WSW,240,9.0,18.0,76,0.00,,,0.00,WUHU216DAVISVP2,2013-01-07 21:31:00,
2013-01-07 16:32:00,33.7,27.0,29.42,South,182,8.0,18.0,76,0.00,,,0.00,WUHU216DAVISVP2,2013-01-07 21:32:00,
2013-01-07 16:35:00,33.7,27.0,29.42,South,176,4.0,18.0,76,0.00,,,0.00,WUHU216DAVISVP2,2013-01-07 21:35:00,
2013-01-07 16:36:00,33.6,26.9,29.42,SW,230,6.0,18.0,76,0.00,,,0.00,WUHU216DAVISVP2,2013-01-07 21:36:00,
2013-01-07 16:37:00,33.6,26.9,29.42,WSW,237,7.0,18.0,76,0.00,,,0.00,WUHU216DAVISVP2,2013-01-07 21:37:00,
2013-01-07 16:40:00,33.5,26.8,29.42,SW,230,5.0,15.0,76,0.00,,,0.00,WUHU216DAVISVP2,2013-01-07 21:40:00,
2013-01-07 16:41:00,33.6,26.9,29.42,WSW,237,7.0,15.0,76,0.00,,,0.00,WUHU216DAVISVP2,2013-01-07 21:41:00,
2013-01-07 16:42:00,33.6,26.9,29.42,SW,220,4.0,15.0,76,0.00,,,0.00,WUHU216DAVISVP2,2013-01-07 21:42:00,
2013-01-07 16:43:00,33.6,26.9,29.42,SW,222,6.0,14.0,76,0.00,,,0.00,WUHU216DAVISVP2,2013-01-07 21:43:00,
2013-01-07 16:45:00,33.5,26.8,29.42,SSW,196,1.0,14.0,76,0.00,,,0.00,WUHU216DAVISVP2,2013-01-07 21:45:00,
2013-01-07 16:47:00,33.5,26.8,29.42,South,189,4.0,14.0,76,0.00,,,0.00,WUHU216DAVISVP2,2013-01-07 21:47:00,
2013-01-07 16:48:00,33.4,26.7,29.42,South,185,5.0,12.0,76,0.00,,,0.00,WUHU216DAVISVP2,2013-01-07 21:48:00,
2013-01-07 16:50:00,33.4,26.7,29.42,SSW,209,7.0,18.0,76,0.00,,,0.00,WUHU216DAVISVP2,2013-01-07 21:50:00,
2013-01-07 16:52:00,33.3,26.9,29.41,SSW,197,7.0,18.0,77,0.00,,,0.00,WUHU216DAVISVP2,2013-01-07 21:52:00,
2013-01-07 16:53:00,33.3,26.9,29.41,SSW,204,7.0,18.0,77,0.00,,,0.00,WUHU216DAVISVP2,2013-01-07 21:53:00,
2013-01-07 16:55:00,33.2,26.8,29.41,SSW,199,3.0,18.0,77,0.00,,,0.00,WUHU216DAVISVP2,2013-01-07 21:55:00,
2013-01-07 16:57:00,33.2,26.8,29.41,South,185,7.0,18.0,77,0.00,,,0.00,WUHU216DAVISVP2,2013-01-07 21:57:00,
2013-01-07 16:58:00,33.1,26.7,29.41,South,187,3.0,18.0,77,0.00,,,0.00,WUHU216DAVISVP2,2013-01-07 21:58:00,
2013-01-07 17:00:00,33.1,26.7,29.41,SW,218,6.0,18.0,77,0.00,,,0.00,WUHU216DAVISVP2,2013-01-07 22:00:00,
2013-01-07 17:02:00,33.0,26.6,29.41,South,190,5.0,18.0,77,0.00,,,0.00,WUHU216DAVISVP2,2013-01-07 22:02:00,
2013-01-07 17:03:00,33.0,26.6,29.42,SSW,209,1.0,18.0,77,0.00,,,0.00,WUHU216DAVISVP2,2013-01-07 22:03:00,
2013-01-07 17:06:00,32.9,26.5,29.42,SSW,213,3.0,18.0,77,0.00,,,0.00,WUHU216DAVISVP2,2013-01-07 22:06:00,
2013-01-07 17:07:00,32.9,26.5,29.42,SW,235,5.0,15.0,77,0.00,,,0.00,WUHU216DAVISVP2,2013-01-07 22:07:00,
2013-01-07 17:08:00,32.9,26.5,29.41,South,175,7.0,15.0,77,0.00,,,0.00,WUHU216DAVISVP2,2013-01-07 22:08:00,
2013-01-07 17:11:00,32.7,26.3,29.41,SW,236,7.0,15.0,77,0.00,,,0.00,WUHU216DAVISVP2,2013-01-07 22:11:00,
2013-01-07 17:12:00,32.6,26.2,29.41,SW,217,4.0,15.0,77,0.00,,,0.00,WUHU216DAVISVP2,2013-01-07 22:12:00,
2013-01-07 17:14:00,32.6,26.5,29.41,SSW,208,2.0,18.0,78,0.00,,,0.00,WUHU216DAVISVP2,2013-01-07 22:14:00,
2013-01-07 17:16:00,32.5,26.4,29.41,South,191,11.0,19.0,78,0.00,,,0.00,WUHU216DAVISVP2,2013-01-07 22:16:00,
2013-01-07 17:17:00,32.4,26.3,29.42,SW,234,10.0,20.0,78,0.00,,,0.00,WUHU216DAVISVP2,2013-01-07 22:17:00,
2013-01-07 17:18:00,32.4,26.3,29.42,South,181,11.0,20.0,78,0.00,,,0.00,WUHU216DAVISVP2,2013-01-07 22:18:00,
2013-01-07 17:19:00,32.4,26.3,29.42,SW,226,2.0,20.0,78,0.00,,,0.00,WUHU216DAVISVP2,2013-01-07 22:19:00,
2013-01-07 17:21:00,32.3,26.2,29.42,SW,226,5.0,20.0,78,0.00,,,0.00,WUHU216DAVISVP2,2013-01-07 22:21:00,
2013-01-07 17:23:00,32.3,26.2,29.42,SSW,192,5.0,20.0,78,0.00,,,0.00,WUHU216DAVISVP2,2013-01-07 22:23:00,
2013-01-07 17:24:00,32.1,26.0,29.42,SSW,200,4.0,20.0,78,0.00,,,0.00,WUHU216DAVISVP2,2013-01-07 22:24:00,
2013-01-07 17:26:00,32.1,26.0,29.42,SSW,206,5.0,20.0,78,0.00,,,0.00,WUHU216DAVISVP2,2013-01-07 22:26:00,
2013-01-07 17:28:00,32.0,25.9,29.42,SW,216,1.0,20.0,78,0.00,,,0.00,WUHU216DAVISVP2,2013-01-07 22:28:00,
2013-01-07 17:29:00,32.0,26.2,29.41,SSW,195,1.0,20.0,79,0.00,,,0.00,WUHU216DAVISVP2,2013-01-07 22:29:00,
2013-01-07 17:31:00,31.9,25.8,29.41,South,191,2.0,20.0,78,0.00,,,0.00,WUHU216DAVISVP2,2013-01-07 22:31:00,
2013-01-07 17:33:00,31.7,25.9,29.41,South,184,2.0,20.0,79,0.00,,,0.00,WUHU216DAVISVP2,2013-01-07 22:33:00,
2013-01-07 17:34:00,31.7,25.9,29.41,SSW,195,0.0,20.0,79,0.00,,,0.00,WUHU216DAVISVP2,2013-01-07 22:34:00,
2013-01-07 17:37:00,31.6,25.8,29.41,South,191,6.0,12.0,79,0.00,,,0.00,WUHU216DAVISVP2,2013-01-07 22:37:00,
2013-01-07 17:38:00,31.5,25.8,29.41,SSW,202,2.0,12.0,79,0.00,,,0.00,WUHU216DAVISVP2,2013-01-07 22:38:00,
2013-01-07 17:39:00,31.5,25.8,29.41,SSW,206,1.0,12.0,79,0.00,,,0.00,WUHU216DAVISVP2,2013-01-07 22:39:00,
2013-01-07 17:42:00,31.4,25.7,29.41,South,191,5.0,12.0,79,0.00,,,0.00,WUHU216DAVISVP2,2013-01-07 22:42:00,
2013-01-07 17:43:00,31.2,25.5,29.41,SSW,207,3.0,12.0,79,0.00,,,0.00,WUHU216DAVISVP2,2013-01-07 22:43:00,
2013-01-07 17:44:00,31.2,25.8,29.40,SSW,199,1.0,12.0,80,0.00,,,0.00,WUHU216DAVISVP2,2013-01-07 22:44:00,
2013-01-07 17:47:00,31.0,25.6,29.40,South,175,2.0,12.0,80,0.00,,,0.00,WUHU216DAVISVP2,2013-01-07 22:47:00,
2013-01-07 17:48:00,31.0,25.6,29.40,SSW,206,1.0,12.0,80,0.00,,,0.00,WUHU216DAVISVP2,2013-01-07 22:48:00,
2013-01-07 17:49:00,30.9,25.5,29.40,SSW,205,4.0,12.0,80,0.00,,,0.00,WUHU216DAVISVP2,2013-01-07 22:49:00,
2013-01-07 17:52:00,30.8,25.4,29.40,South,187,5.0,13.0,80,0.00,,,0.00,WUHU216DAVISVP2,2013-01-07 22:52:00,
2013-01-07 17:53:00,30.8,25.4,29.40,South,183,7.0,13.0,80,0.00,,,0.00,WUHU216DAVISVP2,2013-01-07 22:53:00,
2013-01-07 17:54:00,30.8,25.4,29.40,SW,233,4.0,13.0,80,0.00,,,0.00,WUHU216DAVISVP2,2013-01-07 22:54:00,
2013-01-07 17:57:00,30.7,25.3,29.40,SW,236,7.0,13.0,80,0.00,,,0.00,WUHU216DAVISVP2,2013-01-07 22:57:00,
2013-01-07 17:59:00,30.7,25.6,29.40,SW,220,1.0,13.0,81,0.00,,,0.00,WUHU216DAVISVP2,2013-01-07 22:59:00,
2013-01-07 18:02:00,30.6,25.5,29.39,South,187,5.0,13.0,81,0.00,,,0.00,WUHU216DAVISVP2,2013-01-07 23:02:00,
2013-01-07 18:04:00,30.6,25.5,29.39,South,177,7.0,13.0,81,0.00,,,0.00,WUHU216DAVISVP2,2013-01-07 23:04:00,
2013-01-07 18:07:00,30.5,25.4,29.39,South,183,9.0,13.0,81,0.00,,,0.00,WUHU216DAVISVP2,2013-01-07 23:07:00,
2013-01-07 18:09:00,30.5,25.4,29.38,SSW,202,2.0,13.0,81,0.00,,,0.00,WUHU216DAVISVP2,2013-01-07 23:09:00,
2013-01-07 18:10:00,30.5,25.4,29.39,South,182,6.0,13.0,81,0.00,,,0.00,WUHU216DAVISVP2,2013-01-07 23:10:00,
2013-01-07 18:12:00,30.4,25.3,29.38,SW,231,5.0,15.0,81,0.00,,,0.00,WUHU216DAVISVP2,2013-01-07 23:12:00,
2013-01-07 18:14:00,30.4,25.3,29.38,SSW,201,1.0,16.0,81,0.00,,,0.00,WUHU216DAVISVP2,2013-01-07 23:14:00,
2013-01-07 18:15:00,30.3,25.2,29.38,South,181,4.0,16.0,81,0.00,,,0.00,WUHU216DAVISVP2,2013-01-07 23:15:00,
2013-01-07 18:17:00,30.3,25.2,29.38,SSW,210,4.0,16.0,81,0.00,,,0.00,WUHU216DAVISVP2,2013-01-07 23:17:00,
2013-01-07 18:19:00,30.3,25.2,29.38,SSW,197,5.0,16.0,81,0.00,,,0.00,WUHU216DAVISVP2,2013-01-07 23:19:00,
2013-01-07 18:20:00,30.3,25.2,29.38,SSW,195,7.0,16.0,81,0.00,,,0.00,WUHU216DAVISVP2,2013-01-07 23:20:00,
2013-01-07 18:22:00,30.4,25.3,29.38,South,179,1.0,16.0,81,0.00,,,0.00,WUHU216DAVISVP2,2013-01-07 23:22:00,
2013-01-07 18:24:00,30.5,25.4,29.39,SSW,194,5.0,16.0,81,0.00,,,0.00,WUHU216DAVISVP2,2013-01-07 23:24:00,
2013-01-07 18:25:00,30.5,25.4,29.39,SSW,203,2.0,16.0,81,0.00,,,0.00,WUHU216DAVISVP2,2013-01-07 23:25:00,
2013-01-07 18:27:00,30.5,25.4,29.39,South,176,5.0,16.0,81,0.00,,,0.00,WUHU216DAVISVP2,2013-01-07 23:27:00,
2013-01-07 18:29:00,30.6,25.5,29.39,South,181,8.0,16.0,81,0.00,,,0.00,WUHU216DAVISVP2,2013-01-07 23:29:00,
2013-01-07 18:30:00,30.6,25.5,29.39,SE,140,5.0,16.0,81,0.00,,,0.00,WUHU216DAVISVP2,2013-01-07 23:30:00,
2013-01-07 18:33:00,30.5,25.4,29.38,South,170,6.0,16.0,81,0.00,,,0.00,WUHU216DAVISVP2,2013-01-07 23:33:00,
2013-01-07 18:34:00,30.5,25.4,29.38,SSW,199,5.0,16.0,81,0.00,,,0.00,WUHU216DAVISVP2,2013-01-07 23:34:00,
2013-01-07 18:35:00,30.5,25.4,29.38,South,181,7.0,16.0,81,0.00,,,0.00,WUHU216DAVISVP2,2013-01-07 23:35:00,
2013-01-07 18:36:00,30.5,25.4,29.38,SSW,213,4.0,16.0,81,0.00,,,0.00,WUHU216DAVISVP2,2013-01-07 23:36:00,
2013-01-07 18:38:00,30.4,25.3,29.38,SSW,208,2.0,16.0,81,0.00,,,0.00,WUHU216DAVISVP2,2013-01-07 23:38:00,
2013-01-07 18:40:00,30.4,25.3,29.38,SSW,199,7.0,16.0,81,0.00,,,0.00,WUHU216DAVISVP2,2013-01-07 23:40:00,
2013-01-07 18:41:00,30.4,25.3,29.38,South,169,7.0,16.0,81,0.00,,,0.00,WUHU216DAVISVP2,2013-01-07 23:41:00,
2013-01-07 18:43:00,30.4,25.3,29.38,South,179,3.0,16.0,81,0.00,,,0.00,WUHU216DAVISVP2,2013-01-07 23:43:00,
2013-01-07 18:45:00,30.4,25.3,29.38,South,177,6.0,16.0,81,0.00,,,0.00,WUHU216DAVISVP2,2013-01-07 23:45:00,
2013-01-07 18:46:00,30.4,25.3,29.38,SW,217,1.0,13.0,81,0.00,,,0.00,WUHU216DAVISVP2,2013-01-07 23:46:00,
2013-01-07 18:49:00,30.3,25.2,29.38,SSE,159,7.0,13.0,81,0.00,,,0.00,WUHU216DAVISVP2,2013-01-07 23:49:00,
2013-01-07 18:50:00,30.3,25.2,29.38,SSW,202,4.0,13.0,81,0.00,,,0.00,WUHU216DAVISVP2,2013-01-07 23:50:00,
2013-01-07 18:51:00,30.3,25.2,29.38,South,184,5.0,13.0,81,0.00,,,0.00,WUHU216DAVISVP2,2013-01-07 23:51:00,
2013-01-07 18:54:00,30.3,25.2,29.38,SSW,208,3.0,13.0,81,0.00,,,0.00,WUHU216DAVISVP2,2013-01-07 23:54:00,
2013-01-07 18:55:00,30.3,24.9,29.38,SW,216,4.0,13.0,80,0.00,,,0.00,WUHU216DAVISVP2,2013-01-07 23:55:00,
2013-01-07 18:56:00,30.3,24.9,29.38,SSW,199,0.0,13.0,80,0.00,,,0.00,WUHU216DAVISVP2,2013-01-07 23:56:00,
2013-01-07 18:59:00,30.2,25.1,29.38,SSW,209,3.0,13.0,81,0.00,,,0.00,WUHU216DAVISVP2,2013-01-07 23:59:00,
2013-01-07 19:00:00,30.1,25.0,29.38,SSW,195,8.0,13.0,81,0.00,,,0.00,WUHU216DAVISVP2,2013-01-08 00:00:00,
2013-01-07 19:01:00,30.2,25.1,29.38,SSW,195,3.0,13.0,81,0.00,,,0.00,WUHU216DAVISVP2,2013-01-08 00:01:00,
2013-01-07 19:04:00,30.1,25.0,29.38,South,189,3.0,13.0,81,0.00,,,0.00,WUHU216DAVISVP2,2013-01-08 00:04:00,
2013-01-07 19:05:00,30.1,25.0,29.38,SSW,208,1.0,13.0,81,0.00,,,0.00,WUHU216DAVISVP2,2013-01-08 00:05:00,
2013-01-07 19:06:00,30.1,25.0,29.38,South,187,6.0,13.0,81,0.00,,,0.00,WUHU216DAVISVP2,2013-01-08 00:06:00,
2013-01-07 19:09:00,30.0,24.9,29.38,SW,218,5.0,13.0,81,0.00,,,0.00,WUHU216DAVISVP2,2013-01-08 00:09:00,
2013-01-07 19:10:00,30.0,24.9,29.38,SSW,204,4.0,13.0,81,0.00,,,0.00,WUHU216DAVISVP2,2013-01-08 00:10:00,
2013-01-07 19:12:00,30.0,24.9,29.38,SW,228,4.0,13.0,81,0.00,,,0.00,WUHU216DAVISVP2,2013-01-08 00:12:00,
2013-01-07 19:14:00,30.0,24.9,29.38,South,187,3.0,11.0,81,0.00,,,0.00,WUHU216DAVISVP2,2013-01-08 00:14:00,
2013-01-07 19:15:00,29.9,24.8,29.38,South,187,5.0,11.0,81,0.00,,,0.00,WUHU216DAVISVP2,2013-01-08 00:15:00,
2013-01-07 19:17:00,29.9,24.8,29.38,SSW,207,4.0,11.0,81,0.00,,,0.00,WUHU216DAVISVP2,2013-01-08 00:17:00,
2013-01-07 19:19:00,29.8,24.7,29.38,SSW,210,2.0,11.0,81,0.00,,,0.00,WUHU216DAVISVP2,2013-01-08 00:19:00,
2013-01-07 19:20:00,29.8,24.7,29.38,SSW,197,2.0,11.0,81,0.00,,,0.00,WUHU216DAVISVP2,2013-01-08 00:20:00,
2013-01-07 19:22:00,29.8,24.7,29.38,SW,216,2.0,11.0,81,0.00,,,0.00,WUHU216DAVISVP2,2013-01-08 00:22:00,
2013-01-07 19:25:00,29.7,24.6,29.38,SSW,207,1.0,11.0,81,0.00,,,0.00,WUHU216DAVISVP2,2013-01-08 00:25:00,
2013-01-07 19:27:00,29.7,24.6,29.38,SSW,212,1.0,11.0,81,0.00,,,0.00,WUHU216DAVISVP2,2013-01-08 00:27:00,
2013-01-07 19:30:00,29.7,24.6,29.38,SW,228,6.0,11.0,81,0.00,,,0.00,WUHU216DAVISVP2,2013-01-08 00:30:00,
2013-01-07 19:31:00,29.7,24.6,29.38,South,187,7.0,11.0,81,0.00,,,0.00,WUHU216DAVISVP2,2013-01-08 00:31:00,
2013-01-07 19:32:00,29.7,24.6,29.38,South,181,5.0,10.0,81,0.00,,,0.00,WUHU216DAVISVP2,2013-01-08 00:32:00,
2013-01-07 19:35:00,29.6,24.5,29.37,South,191,2.0,11.0,81,0.00,,,0.00,WUHU216DAVISVP2,2013-01-08 00:35:00,
2013-01-07 19:36:00,29.6,24.5,29.37,SSW,193,4.0,11.0,81,0.00,,,0.00,WUHU216DAVISVP2,2013-01-08 00:36:00,
2013-01-07 19:37:00,29.6,24.5,29.37,SSW,210,2.0,11.0,81,0.00,,,0.00,WUHU216DAVISVP2,2013-01-08 00:37:00,
2013-01-07 19:40:00,29.5,24.4,29.37,South,188,4.0,11.0,81,0.00,,,0.00,WUHU216DAVISVP2,2013-01-08 00:40:00,
2013-01-07 19:41:00,29.5,24.4,29.37,SW,233,4.0,11.0,81,0.00,,,0.00,WUHU216DAVISVP2,2013-01-08 00:41:00,
2013-01-07 19:42:00,29.5,24.4,29.37,SSW,192,1.0,11.0,81,0.00,,,0.00,WUHU216DAVISVP2,2013-01-08 00:42:00,
2013-01-07 19:45:00,29.4,24.3,29.37,SSW,213,2.0,11.0,81,0.00,,,0.00,WUHU216DAVISVP2,2013-01-08 00:45:00,
2013-01-07 19:46:00,29.4,24.3,29.37,SSW,198,3.0,11.0,81,0.00,,,0.00,WUHU216DAVISVP2,2013-01-08 00:46:00,
2013-01-07 19:47:00,29.4,24.3,29.37,South,182,5.0,11.0,81,0.00,,,0.00,WUHU216DAVISVP2,2013-01-08 00:47:00,
2013-01-07 19:50:00,29.4,24.3,29.37,South,179,6.0,11.0,81,0.00,,,0.00,WUHU216DAVISVP2,2013-01-08 00:50:00,
2013-01-07 19:51:00,29.4,24.3,29.37,South,189,1.0,11.0,81,0.00,,,0.00,WUHU216DAVISVP2,2013-01-08 00:51:00,
2013-01-07 19:52:00,29.4,24.3,29.37,SSW,213,1.0,11.0,81,0.00,,,0.00,WUHU216DAVISVP2,2013-01-08 00:52:00,
2013-01-07 19:53:00,29.4,24.3,29.37,South,178,7.0,11.0,81,0.00,,,0.00,WUHU216DAVISVP2,2013-01-08 00:53:00,
2013-01-07 19:55:00,29.4,24.3,29.37,South,179,5.0,10.0,81,0.00,,,0.00,WUHU216DAVISVP2,2013-01-08 00:55:00,
2013-01-07 19:56:00,29.4,24.3,29.37,SSW,192,4.0,9.0,81,0.00,,,0.00,WUHU216DAVISVP2,2013-01-08 00:56:00,
2013-01-07 19:57:00,29.4,24.3,29.37,SW,215,1.0,11.0,81,0.00,,,0.00,WUHU216DAVISVP2,2013-01-08 00:57:00,
2013-01-07 19:58:00,29.4,24.3,29.37,South,181,4.0,11.0,81,0.00,,,0.00,WUHU216DAVISVP2,2013-01-08 00:58:00,
2013-01-07 20:00:00,29.4,24.3,29.37,SW,226,5.0,11.0,81,0.00,,,0.00,WUHU216DAVISVP2,2013-01-08 01:00:00,
2013-01-07 20:01:00,29.4,24.3,29.37,SW,224,3.0,11.0,81,0.00,,,0.00,WUHU216DAVISVP2,2013-01-08 01:01:00,
2013-01-07 20:02:00,29.4,24.3,29.37,SW,235,7.0,11.0,81,0.00,,,0.00,WUHU216DAVISVP2,2013-01-08 01:02:00,
2013-01-07 20:03:00,29.4,24.3,29.37,South,182,5.0,11.0,81,0.00,,,0.00,WUHU216DAVISVP2,2013-01-08 01:03:00,
2013-01-07 20:05:00,29.3,24.2,29.38,WSW,237,9.0,11.0,81,0.00,,,0.00,WUHU216DAVISVP2,2013-01-08 01:05:00,
2013-01-07 20:06:00,29.3,24.2,29.38,SSW,197,1.0,11.0,81,0.00,,,0.00,WUHU216DAVISVP2,2013-01-08 01:06:00,
2013-01-07 20:07:00,29.3,24.2,29.37,SSW,207,6.0,11.0,81,0.00,,,0.00,WUHU216DAVISVP2,2013-01-08 01:07:00,
2013-01-07 20:08:00,29.3,24.2,29.37,SW,219,2.0,11.0,81,0.00,,,0.00,WUHU216DAVISVP2,2013-01-08 01:08:00,
2013-01-07 20:11:00,29.4,24.3,29.37,South,185,7.0,11.0,81,0.00,,,0.00,WUHU216DAVISVP2,2013-01-08 01:11:00,
2013-01-07 20:12:00,29.4,24.3,29.37,South,182,5.0,11.0,81,0.00,,,0.00,WUHU216DAVISVP2,2013-01-08 01:12:00,
2013-01-07 20:13:00,29.4,24.3,29.37,SW,216,0.0,11.0,81,0.00,,,0.00,WUHU216DAVISVP2,2013-01-08 01:13:00,
2013-01-07 20:16:00,29.3,24.2,29.37,SW,223,2.0,11.0,81,0.00,,,0.00,WUHU216DAVISVP2,2013-01-08 01:16:00,
2013-01-07 20:17:00,29.2,24.1,29.37,WSW,240,1.0,11.0,81,0.00,,,0.00,WUHU216DAVISVP2,2013-01-08 01:17:00,
2013-01-07 20:18:00,29.2,24.1,29.37,WSW,240,4.0,11.0,81,0.00,,,0.00,WUHU216DAVISVP2,2013-01-08 01:18:00,
2013-01-07 20:21:00,29.2,24.1,29.38,SSW,194,5.0,11.0,81,0.00,,,0.00,WUHU216DAVISVP2,2013-01-08 01:21:00,
2013-01-07 20:22:00,29.1,24.0,29.38,SSW,194,2.0,11.0,81,0.00,,,0.00,WUHU216DAVISVP2,2013-01-08 01:22:00,
2013-01-07 20:23:00,29.1,24.0,29.38,SSW,194,1.0,11.0,81,0.00,,,0.00,WUHU216DAVISVP2,2013-01-08 01:23:00,
2013-01-07 20:26:00,29.0,23.9,29.37,SW,214,2.0,11.0,81,0.00,,,0.00,WUHU216DAVISVP2,2013-01-08 01:26:00,
2013-01-07 20:28:00,29.0,23.9,29.37,SSW,205,1.0,11.0,81,0.00,,,0.00,WUHU216DAVISVP2,2013-01-08 01:28:00,
2013-01-07 20:31:00,29.0,23.9,29.37,SW,235,6.0,11.0,81,0.00,,,0.00,WUHU216DAVISVP2,2013-01-08 01:31:00,
2013-01-07 20:33:00,29.0,23.9,29.37,SW,233,2.0,11.0,81,0.00,,,0.00,WUHU216DAVISVP2,2013-01-08 01:33:00,
2013-01-07 20:36:00,28.9,24.1,29.37,SW,216,2.0,8.0,82,0.00,,,0.00,WUHU216DAVISVP2,2013-01-08 01:36:00,
2013-01-07 20:38:00,28.9,24.1,29.37,SW,224,0.0,8.0,82,0.00,,,0.00,WUHU216DAVISVP2,2013-01-08 01:38:00,
2013-01-07 20:41:00,28.8,24.0,29.37,South,185,6.0,8.0,82,0.00,,,0.00,WUHU216DAVISVP2,2013-01-08 01:41:00,
2013-01-07 20:42:00,28.8,24.0,29.37,SSW,203,1.0,8.0,82,0.00,,,0.00,WUHU216DAVISVP2,2013-01-08 01:42:00,
2013-01-07 20:43:00,28.8,24.0,29.38,SW,217,3.0,8.0,82,0.00,,,0.00,WUHU216DAVISVP2,2013-01-08 01:43:00,
2013-01-07 20:44:00,28.8,24.0,29.38,SW,217,0.0,8.0,82,0.00,,,0.00,WUHU216DAVISVP2,2013-01-08 01:44:00,
2013-01-07 20:46:00,28.7,23.9,29.37,SSW,210,2.0,8.0,82,0.00,,,0.00,WUHU216DAVISVP2,2013-01-08 01:46:00,
2013-01-07 20:47:00,28.7,23.9,29.37,SSW,210,0.0,8.0,82,0.00,,,0.00,WUHU216DAVISVP2,2013-01-08 01:47:00,
2013-01-07 20:48:00,28.7,23.9,29.37,SSW,210,0.0,8.0,82,0.00,,,0.00,WUHU216DAVISVP2,2013-01-08 01:48:00,
2013-01-07 20:49:00,28.7,23.9,29.37,SSW,210,0.0,8.0,82,0.00,,,0.00,WUHU216DAVISVP2,2013-01-08 01:49:00,
2013-01-07 20:51:00,28.6,23.8,29.37,SW,231,4.0,8.0,82,0.00,,,0.00,WUHU216DAVISVP2,2013-01-08 01:51:00,
2013-01-07 20:52:00,28.5,23.7,29.37,South,190,4.0,8.0,82,0.00,,,0.00,WUHU216DAVISVP2,2013-01-08 01:52:00,
2013-01-07 20:53:00,28.5,23.7,29.37,SSW,210,2.0,8.0,82,0.00,,,0.00,WUHU216DAVISVP2,2013-01-08 01:53:00,
2013-01-07 20:54:00,28.5,23.7,29.37,South,185,5.0,6.0,82,0.00,,,0.00,WUHU216DAVISVP2,2013-01-08 01:54:00,
2013-01-07 20:56:00,28.4,23.6,29.37,South,189,4.0,7.0,82,0.00,,,0.00,WUHU216DAVISVP2,2013-01-08 01:56:00,
2013-01-07 20:57:00,28.4,23.6,29.37,SW,215,4.0,7.0,82,0.00,,,0.00,WUHU216DAVISVP2,2013-01-08 01:57:00,
2013-01-07 20:59:00,28.4,23.6,29.36,South,189,0.0,7.0,82,0.00,,,0.00,WUHU216DAVISVP2,2013-01-08 01:59:00,
2013-01-07 21:01:00,28.3,23.5,29.36,SSW,210,1.0,7.0,82,0.00,,,0.00,WUHU216DAVISVP2,2013-01-08 02:01:00,
2013-01-07 21:02:00,28.3,23.5,29.36,SSW,210,0.0,7.0,82,0.00,,,0.00,WUHU216DAVISVP2,2013-01-08 02:02:00,
2013-01-07 21:04:00,28.2,23.4,29.36,SSW,195,1.0,7.0,82,0.00,,,0.00,WUHU216DAVISVP2,2013-01-08 02:04:00,
2013-01-07 21:05:00,28.2,23.7,29.36,South,185,4.0,7.0,83,0.00,,,0.00,WUHU216DAVISVP2,2013-01-08 02:05:00,
2013-01-07 21:06:00,28.2,23.7,29.36,South,189,2.0,7.0,83,0.00,,,0.00,WUHU216DAVISVP2,2013-01-08 02:06:00,
2013-01-07 21:07:00,28.2,23.7,29.36,SSW,201,1.0,7.0,83,0.00,,,0.00,WUHU216DAVISVP2,2013-01-08 02:07:00,
2013-01-07 21:09:00,28.1,23.6,29.36,SSW,200,0.0,7.0,83,0.00,,,0.00,WUHU216DAVISVP2,2013-01-08 02:09:00,
2013-01-07 21:10:00,28.1,23.6,29.36,SSW,199,1.0,7.0,83,0.00,,,0.00,WUHU216DAVISVP2,2013-01-08 02:10:00,
2013-01-07 21:12:00,28.1,23.6,29.36,SSW,200,1.0,7.0,83,0.00,,,0.00,WUHU216DAVISVP2,2013-01-08 02:12:00,
2013-01-07 21:13:00,28.0,23.5,29.36,South,181,4.0,7.0,83,0.00,,,0.00,WUHU216DAVISVP2,2013-01-08 02:13:00,
2013-01-07 21:14:00,28.0,23.5,29.36,South,191,2.0,6.0,83,0.00,,,0.00,WUHU216DAVISVP2,2013-01-08 02:14:00,
2013-01-07 21:15:00,28.1,23.6,29.36,South,176,2.0,8.0,83,0.00,,,0.00,WUHU216DAVISVP2,2013-01-08 02:15:00,
2013-01-07 21:16:00,28.1,23.6,29.36,South,189,6.0,8.0,83,0.00,,,0.00,WUHU216DAVISVP2,2013-01-08 02:16:00,
2013-01-07 21:18:00,28.1,23.6,29.36,SW,230,3.0,8.0,83,0.00,,,0.00,WUHU216DAVISVP2,2013-01-08 02:18:00,
2013-01-07 21:19:00,28.2,23.7,29.36,South,191,4.0,8.0,83,0.00,,,0.00,WUHU216DAVISVP2,2013-01-08 02:19:00,
2013-01-07 21:20:00,28.2,23.7,29.36,South,185,5.0,8.0,83,0.00,,,0.00,WUHU216DAVISVP2,2013-01-08 02:20:00,
2013-01-07 21:22:00,28.2,23.7,29.36,SSW,192,4.0,8.0,83,0.00,,,0.00,WUHU216DAVISVP2,2013-01-08 02:22:00,
2013-01-07 21:23:00,28.2,23.7,29.36,SW,220,0.0,8.0,83,0.00,,,0.00,WUHU216DAVISVP2,2013-01-08 02:23:00,
2013-01-07 21:24:00,28.1,23.6,29.35,SSW,209,1.0,8.0,83,0.00,,,0.00,WUHU216DAVISVP2,2013-01-08 02:24:00,
2013-01-07 21:25:00,28.1,23.6,29.35,SSW,210,1.0,8.0,83,0.00,,,0.00,WUHU216DAVISVP2,2013-01-08 02:25:00,
2013-01-07 21:27:00,28.1,23.6,29.36,SSW,204,2.0,8.0,83,0.00,,,0.00,WUHU216DAVISVP2,2013-01-08 02:27:00,
2013-01-07 21:28:00,28.0,23.5,29.36,South,189,4.0,8.0,83,0.00,,,0.00,WUHU216DAVISVP2,2013-01-08 02:28:00,
2013-01-07 21:29:00,28.0,23.5,29.36,SSW,197,4.0,9.0,83,0.00,,,0.00,WUHU216DAVISVP2,2013-01-08 02:29:00,
2013-01-07 21:31:00,28.0,23.5,29.36,South,187,1.0,9.0,83,0.00,,,0.00,WUHU216DAVISVP2,2013-01-08 02:31:00,
2013-01-07 21:32:00,28.0,23.5,29.36,SW,219,2.0,9.0,83,0.00,,,0.00,WUHU216DAVISVP2,2013-01-08 02:32:00,
2013-01-07 21:33:00,27.9,23.4,29.36,SW,219,4.0,9.0,83,0.00,,,0.00,WUHU216DAVISVP2,2013-01-08 02:33:00,
2013-01-07 21:34:00,27.9,23.4,29.36,SSW,194,6.0,9.0,83,0.00,,,0.00,WUHU216DAVISVP2,2013-01-08 02:34:00,
2013-01-07 21:36:00,27.9,23.4,29.36,SW,224,6.0,9.0,83,0.00,,,0.00,WUHU216DAVISVP2,2013-01-08 02:36:00,
2013-01-07 21:38:00,28.0,23.5,29.36,SW,224,4.0,9.0,83,0.00,,,0.00,WUHU216DAVISVP2,2013-01-08 02:38:00,
2013-01-07 21:39:00,28.0,23.8,29.36,WSW,238,3.0,9.0,84,0.00,,,0.00,WUHU216DAVISVP2,2013-01-08 02:39:00,
2013-01-07 21:41:00,28.1,23.9,29.36,WSW,245,8.0,9.0,84,0.00,,,0.00,WUHU216DAVISVP2,2013-01-08 02:41:00,
2013-01-07 21:43:00,28.1,23.6,29.36,SSW,210,7.0,10.0,83,0.00,,,0.00,WUHU216DAVISVP2,2013-01-08 02:43:00,
2013-01-07 21:44:00,28.2,23.7,29.36,South,177,4.0,10.0,83,0.00,,,0.00,WUHU216DAVISVP2,2013-01-08 02:44:00,
2013-01-07 21:46:00,28.2,23.7,29.36,WSW,237,4.0,10.0,83,0.00,,,0.00,WUHU216DAVISVP2,2013-01-08 02:46:00,
2013-01-07 21:48:00,28.2,23.7,29.36,WSW,247,6.0,10.0,83,0.00,,,0.00,WUHU216DAVISVP2,2013-01-08 02:48:00,
2013-01-07 21:50:00,28.3,23.8,29.36,WSW,246,9.0,11.0,83,0.00,,,0.00,WUHU216DAVISVP2,2013-01-08 02:50:00,
2013-01-07 21:52:00,28.4,23.9,29.36,WSW,242,7.0,12.0,83,0.00,,,0.00,WUHU216DAVISVP2,2013-01-08 02:52:00,
2013-01-07 21:53:00,28.4,23.9,29.36,WSW,240,6.0,12.0,83,0.00,,,0.00,WUHU216DAVISVP2,2013-01-08 02:53:00,
2013-01-07 21:55:00,28.4,23.9,29.36,WSW,238,9.0,13.0,83,0.00,,,0.00,WUHU216DAVISVP2,2013-01-08 02:55:00,
2013-01-07 21:57:00,28.4,23.6,29.36,SW,233,5.0,13.0,82,0.00,,,0.00,WUHU216DAVISVP2,2013-01-08 02:57:00,
2013-01-07 21:58:00,28.4,23.9,29.36,SW,233,4.0,13.0,83,0.00,,,0.00,WUHU216DAVISVP2,2013-01-08 02:58:00,
2013-01-07 22:00:00,28.3,23.8,29.36,SW,235,4.0,13.0,83,0.00,,,0.00,WUHU216DAVISVP2,2013-01-08 03:00:00,
2013-01-07 22:02:00,28.3,23.8,29.36,WSW,250,5.0,13.0,83,0.00,,,0.00,WUHU216DAVISVP2,2013-01-08 03:02:00,
2013-01-07 22:03:00,28.3,23.8,29.36,WSW,247,6.0,13.0,83,0.00,,,0.00,WUHU216DAVISVP2,2013-01-08 03:03:00,
2013-01-07 22:05:00,28.3,23.8,29.35,WSW,240,5.0,13.0,83,0.00,,,0.00,WUHU216DAVISVP2,2013-01-08 03:05:00,
2013-01-07 22:07:00,28.3,23.8,29.36,SW,214,3.0,13.0,83,0.00,,,0.00,WUHU216DAVISVP2,2013-01-08 03:07:00,
2013-01-07 22:08:00,28.3,23.8,29.36,WSW,247,4.0,13.0,83,0.00,,,0.00,WUHU216DAVISVP2,2013-01-08 03:08:00,
2013-01-07 22:10:00,28.3,23.8,29.36,WSW,242,4.0,13.0,83,0.00,,,0.00,WUHU216DAVISVP2,2013-01-08 03:10:00,
2013-01-07 22:12:00,28.3,23.8,29.35,WSW,238,6.0,14.0,83,0.00,,,0.00,WUHU216DAVISVP2,2013-01-08 03:12:00,
2013-01-07 22:13:00,28.3,23.8,29.35,WSW,239,10.0,14.0,83,0.00,,,0.00,WUHU216DAVISVP2,2013-01-08 03:13:00,
2013-01-07 22:15:00,28.3,23.8,29.35,WSW,237,8.0,14.0,83,0.00,,,0.00,WUHU216DAVISVP2,2013-01-08 03:15:00,
2013-01-07 22:18:00,28.3,23.5,29.35,WSW,245,6.0,14.0,82,0.00,,,0.00,WUHU216DAVISVP2,2013-01-08 03:18:00,
2013-01-07 22:21:00,28.3,23.5,29.35,WSW,249,6.0,14.0,82,0.00,,,0.00,WUHU216DAVISVP2,2013-01-08 03:21:00,
2013-01-07 22:23:00,28.2,23.4,29.35,SW,233,7.0,14.0,82,0.00,,,0.00,WUHU216DAVISVP2,2013-01-08 03:23:00,
2013-01-07 22:24:00,28.2,23.4,29.35,WSW,241,11.0,14.0,82,0.00,,,0.00,WUHU216DAVISVP2,2013-01-08 03:24:00,
2013-01-07 22:26:00,28.2,23.4,29.35,SSW,197,4.0,14.0,82,0.00,,,0.00,WUHU216DAVISVP2,2013-01-08 03:26:00,
2013-01-07 22:28:00,28.2,23.4,29.35,WSW,245,4.0,14.0,82,0.00,,,0.00,WUHU216DAVISVP2,2013-01-08 03:28:00,
2013-01-07 22:29:00,28.2,23.4,29.35,SW,222,3.0,14.0,82,0.00,,,0.00,WUHU216DAVISVP2,2013-01-08 03:29:00,
2013-01-07 22:31:00,28.1,23.3,29.35,SSW,211,1.0,12.0,82,0.00,,,0.00,WUHU216DAVISVP2,2013-01-08 03:31:00,
2013-01-07 22:33:00,28.1,23.3,29.35,SW,220,4.0,13.0,82,0.00,,,0.00,WUHU216DAVISVP2,2013-01-08 03:33:00,
2013-01-07 22:34:00,28.1,23.3,29.35,SSW,205,4.0,13.0,82,0.00,,,0.00,WUHU216DAVISVP2,2013-01-08 03:34:00,
2013-01-07 22:36:00,28.1,23.3,29.35,SSW,208,4.0,13.0,82,0.00,,,0.00,WUHU216DAVISVP2,2013-01-08 03:36:00,
2013-01-07 22:38:00,28.1,23.6,29.35,SSW,193,4.0,13.0,83,0.00,,,0.00,WUHU216DAVISVP2,2013-01-08 03:38:00,
2013-01-07 22:39:00,28.1,23.6,29.35,SSW,209,6.0,13.0,83,0.00,,,0.00,WUHU216DAVISVP2,2013-01-08 03:39:00,
2013-01-07 22:41:00,28.0,23.5,29.35,SW,233,4.0,13.0,83,0.00,,,0.00,WUHU216DAVISVP2,2013-01-08 03:41:00,
2013-01-07 22:43:00,28.0,23.2,29.35,WSW,245,8.0,13.0,82,0.00,,,0.00,WUHU216DAVISVP2,2013-01-08 03:43:00,
2013-01-07 22:44:00,28.0,23.2,29.35,WSW,237,4.0,13.0,82,0.00,,,0.00,WUHU216DAVISVP2,2013-01-08 03:44:00,
2013-01-07 22:46:00,27.9,23.1,29.35,SW,215,1.0,13.0,82,0.00,,,0.00,WUHU216DAVISVP2,2013-01-08 03:46:00,
2013-01-07 22:49:00,27.8,23.3,29.35,SSW,195,5.0,13.0,83,0.00,,,0.00,WUHU216DAVISVP2,2013-01-08 03:49:00,
2013-01-07 22:51:00,27.8,23.3,29.35,SSW,206,0.0,12.0,83,0.00,,,0.00,WUHU216DAVISVP2,2013-01-08 03:51:00,
2013-01-07 22:54:00,27.8,23.3,29.35,SW,218,4.0,12.0,83,0.00,,,0.00,WUHU216DAVISVP2,2013-01-08 03:54:00,
2013-01-07 22:57:00,27.9,23.4,29.35,South,190,6.0,14.0,83,0.00,,,0.00,WUHU216DAVISVP2,2013-01-08 03:57:00,
2013-01-07 22:59:00,27.9,23.4,29.35,SW,214,2.0,14.0,83,0.00,,,0.00,WUHU216DAVISVP2,2013-01-08 03:59:00,
2013-01-07 23:02:00,28.0,23.5,29.35,SW,229,5.0,14.0,83,0.00,,,0.00,WUHU216DAVISVP2,2013-01-08 04:02:00,
2013-01-07 23:04:00,28.0,23.5,29.35,SSW,199,3.0,14.0,83,0.00,,,0.00,WUHU216DAVISVP2,2013-01-08 04:04:00,
2013-01-07 23:05:00,28.0,23.5,29.35,SW,216,5.0,14.0,83,0.00,,,0.00,WUHU216DAVISVP2,2013-01-08 04:05:00,
2013-01-07 23:07:00,28.0,23.5,29.35,WSW,237,5.0,14.0,83,0.00,,,0.00,WUHU216DAVISVP2,2013-01-08 04:07:00,
2013-01-07 23:09:00,27.9,23.4,29.34,SW,216,0.0,14.0,83,0.00,,,0.00,WUHU216DAVISVP2,2013-01-08 04:09:00,
2013-01-07 23:10:00,27.9,23.4,29.34,SSW,195,8.0,14.0,83,0.00,,,0.00,WUHU216DAVISVP2,2013-01-08 04:10:00,
2013-01-07 23:12:00,28.0,23.5,29.34,SW,218,1.0,14.0,83,0.00,,,0.00,WUHU216DAVISVP2,2013-01-08 04:12:00,
2013-01-07 23:15:00,28.0,23.5,29.34,SW,214,0.0,13.0,83,0.00,,,0.00,WUHU216DAVISVP2,2013-01-08 04:15:00,
2013-01-07 23:17:00,28.0,23.5,29.34,SSW,212,3.0,11.0,83,0.00,,,0.00,WUHU216DAVISVP2,2013-01-08 04:17:00,
2013-01-07 23:20:00,28.0,23.5,29.34,South,187,4.0,11.0,83,0.00,,,0.00,WUHU216DAVISVP2,2013-01-08 04:20:00,
2013-01-07 23:21:00,27.9,23.4,29.34,SSW,197,1.0,11.0,83,0.00,,,0.00,WUHU216DAVISVP2,2013-01-08 04:21:00,
2013-01-07 23:22:00,27.9,23.4,29.34,SW,222,2.0,11.0,83,0.00,,,0.00,WUHU216DAVISVP2,2013-01-08 04:22:00,
2013-01-07 23:25:00,27.9,23.4,29.34,SSW,208,4.0,11.0,83,0.00,,,0.00,WUHU216DAVISVP2,2013-01-08 04:25:00,
2013-01-07 23:26:00,27.9,23.4,29.34,SW,220,3.0,12.0,83,0.00,,,0.00,WUHU216DAVISVP2,2013-01-08 04:26:00,
2013-01-07 23:28:00,28.0,23.5,29.34,SW,232,7.0,12.0,83,0.00,,,0.00,WUHU216DAVISVP2,2013-01-08 04:28:00,
2013-01-07 23:30:00,28.0,23.5,29.34,SSW,198,4.0,12.0,83,0.00,,,0.00,WUHU216DAVISVP2,2013-01-08 04:30:00,
2013-01-07 23:31:00,28.1,23.6,29.34,SSW,196,9.0,14.0,83,0.00,,,0.00,WUHU216DAVISVP2,2013-01-08 04:31:00,
2013-01-07 23:33:00,28.1,23.6,29.34,South,190,7.0,14.0,83,0.00,,,0.00,WUHU216DAVISVP2,2013-01-08 04:33:00,
2013-01-07 23:35:00,28.2,23.7,29.34,SW,227,7.0,14.0,83,0.00,,,0.00,WUHU216DAVISVP2,2013-01-08 04:35:00,
2013-01-07 23:36:00,28.3,23.8,29.34,WSW,242,11.0,14.0,83,0.00,,,0.00,WUHU216DAVISVP2,2013-01-08 04:36:00,
2013-01-07 23:38:00,28.4,23.9,29.34,WSW,242,11.0,14.0,83,0.00,,,0.00,WUHU216DAVISVP2,2013-01-08 04:38:00,
2013-01-07 23:40:00,28.5,24.0,29.34,WSW,253,11.0,20.0,83,0.00,,,0.00,WUHU216DAVISVP2,2013-01-08 04:40:00,
2013-01-07 23:41:00,28.7,24.2,29.34,WSW,242,8.0,20.0,83,0.00,,,0.00,WUHU216DAVISVP2,2013-01-08 04:41:00,
2013-01-07 23:42:00,28.7,24.2,29.34,SSW,210,5.0,20.0,83,0.00,,,0.00,WUHU216DAVISVP2,2013-01-08 04:42:00,
2013-01-07 23:43:00,28.8,24.3,29.34,WSW,241,8.0,20.0,83,0.00,,,0.00,WUHU216DAVISVP2,2013-01-08 04:43:00,
2013-01-07 23:45:00,28.9,24.1,29.34,South,189,8.0,20.0,82,0.00,,,0.00,WUHU216DAVISVP2,2013-01-08 04:45:00,
2013-01-07 23:46:00,28.9,24.1,29.34,SSW,210,5.0,20.0,82,0.00,,,0.00,WUHU216DAVISVP2,2013-01-08 04:46:00,
2013-01-07 23:47:00,29.0,24.2,29.34,SSW,208,1.0,20.0,82,0.00,,,0.00,WUHU216DAVISVP2,2013-01-08 04:47:00,
2013-01-07 23:48:00,29.0,24.2,29.34,SSW,204,1.0,20.0,82,0.00,,,0.00,WUHU216DAVISVP2,2013-01-08 04:48:00,
2013-01-07 23:50:00,29.0,24.2,29.34,South,187,12.0,20.0,82,0.00,,,0.00,WUHU216DAVISVP2,2013-01-08 04:50:00,
2013-01-07 23:51:00,29.0,24.2,29.34,WSW,242,10.0,20.0,82,0.00,,,0.00,WUHU216DAVISVP2,2013-01-08 04:51:00,
2013-01-07 23:52:00,29.0,24.2,29.34,SSW,204,5.0,20.0,82,0.00,,,0.00,WUHU216DAVISVP2,2013-01-08 04:52:00,
2013-01-07 23:53:00,29.0,24.2,29.34,SSW,204,4.0,20.0,82,0.00,,,0.00,WUHU216DAVISVP2,2013-01-08 04:53:00,
2013-01-07 23:55:00,29.0,24.2,29.34,South,182,11.0,20.0,82,0.00,,,0.00,WUHU216DAVISVP2,2013-01-08 04:55:00,
2013-01-07 23:56:00,29.0,24.2,29.33,SW,220,3.0,20.0,82,0.00,,,0.00,WUHU216DAVISVP2,2013-01-08 04:56:00,
2013-01-07 23:57:00,29.0,24.2,29.34,West,260,13.0,20.0,82,0.00,,,0.00,WUHU216DAVISVP2,2013-01-08 04:57:00,
2013-01-07 23:59:00,28.9,24.1,29.33,SSW,206,6.0,20.0,82,0.00,,,0.00,WUHU216DAVISVP2,2013-01-08 04:59:00,